Wetterdaten: Freitag, 13.07.2018
Datum Zeit Temp. Aussen Temp. o. S. +5cm Feuchte Auss Luftdruck Regen Sonnenschein Regendauer Solar Windben Empfang
13.07.2018 00:00 17,7 C 15,6 C 15,6 C 91 % 1017,5 hPa 0,0 l/m 0 min 0 min 0 W/m 0,0 km/h (0 Bft) 100,00 %
13.07.2018 00:02 17,7 C 15,6 C 15,6 C 91 % 1017,6 hPa 0,0 l/m 0 min 0 min 0 W/m 0,0 km/h (0 Bft) 9,09 %
13.07.2018 00:04 17,6 C 15,6 C 15,6 C 92 % 1017,6 hPa 0,0 l/m 0 min 0 min 0 W/m 2,3 km/h (1 Bft) 100,00 %
13.07.2018 00:08 17,4 C 15,6 C 15,6 C 91 % 1017,6 hPa 0,0 l/m 0 min 0 min 0 W/m 4,5 km/h (1 Bft) 100,00 %
13.07.2018 00:10 17,4 C 15,6 C 15,6 C 91 % 1017,6 hPa 0,0 l/m 0 min 0 min 0 W/m 2,3 km/h (1 Bft) 100,00 %
13.07.2018 00:12 17,4 C 15,6 C 15,6 C 91 % 1017,6 hPa 0,0 l/m 0 min 0 min 0 W/m 0,0 km/h (0 Bft) 97,87 %
13.07.2018 00:14 17,4 C 15,6 C 15,0 C 91 % 1017,5 hPa 0,0 l/m 0 min 0 min 0 W/m 2,3 km/h (1 Bft) 97,83 %
13.07.2018 00:16 17,3 C 15,0 C 15,0 C 91 % 1017,6 hPa 0,0 l/m 0 min 0 min 0 W/m 2,3 km/h (1 Bft) 95,74 %
13.07.2018 00:18 17,3 C 15,0 C 15,6 C 91 % 1017,6 hPa 0,0 l/m 0 min 0 min 0 W/m 4,5 km/h (1 Bft) 97,87 %
13.07.2018 00:20 17,2 C 15,6 C 15,6 C 91 % 1017,6 hPa 0,0 l/m 0 min 0 min 0 W/m 2,3 km/h (1 Bft) 97,87 %
13.07.2018 00:22 17,2 C 15,0 C 15,6 C 91 % 1017,6 hPa 0,0 l/m 0 min 0 min 0 W/m 0,0 km/h (0 Bft) 93,62 %
13.07.2018 00:24 17,2 C 15,0 C 15,0 C 91 % 1017,6 hPa 0,0 l/m 0 min 0 min 0 W/m 2,3 km/h (1 Bft) 97,87 %
13.07.2018 00:26 17,1 C 15,0 C 15,0 C 91 % 1017,5 hPa 0,0 l/m 0 min 0 min 0 W/m 0,0 km/h (0 Bft) 97,83 %
13.07.2018 00:28 17,1 C 15,0 C 15,0 C 91 % 1017,5 hPa 0,0 l/m 0 min 0 min 0 W/m 2,3 km/h (1 Bft) 97,87 %
13.07.2018 00:30 17,1 C 15,0 C 15,0 C 91 % 1017,6 hPa 0,0 l/m 0 min 0 min 0 W/m 2,3 km/h (1 Bft) 97,87 %
13.07.2018 00:32 17,0 C 15,0 C 15,0 C 91 % 1017,6 hPa 0,0 l/m 0 min 0 min 0 W/m 0,0 km/h (0 Bft) 95,74 %
13.07.2018 00:34 16,9 C 15,0 C 15,0 C 91 % 1017,6 hPa 0,0 l/m 0 min 0 min 0 W/m 0,0 km/h (0 Bft) 95,74 %
13.07.2018 00:38 16,9 C 15,0 C 15,0 C 91 % 1017,6 hPa 0,0 l/m 0 min 0 min 0 W/m 6,8 km/h (2 Bft) 93,00 %
13.07.2018 00:40 16,9 C 15,0 C 15,0 C 91 % 1017,6 hPa 0,0 l/m 0 min 0 min 0 W/m 2,3 km/h (1 Bft) 97,87 %
13.07.2018 00:42 16,8 C 15,0 C 15,0 C 91 % 1017,6 hPa 0,0 l/m 0 min 0 min 0 W/m 2,3 km/h (1 Bft) 95,74 %
13.07.2018 00:44 16,8 C 15,0 C 15,0 C 91 % 1017,6 hPa 0,0 l/m 0 min 0 min 0 W/m 4,5 km/h (1 Bft) 95,74 %
13.07.2018 00:46 16,7 C 15,0 C 15,0 C 91 % 1017,6 hPa 0,0 l/m 0 min 0 min 0 W/m 4,5 km/h (1 Bft) 95,74 %
13.07.2018 00:48 16,7 C 15,0 C 15,0 C 91 % 1017,7 hPa 0,0 l/m 0 min 0 min 0 W/m 2,3 km/h (1 Bft) 97,87 %
13.07.2018 00:50 16,7 C 14,4 C 15,0 C 91 % 1017,6 hPa 0,0 l/m 0 min 0 min 0 W/m 4,5 km/h (1 Bft) 97,83 %
13.07.2018 00:52 16,6 C 14,4 C 15,0 C 91 % 1017,6 hPa 0,0 l/m 0 min 0 min 0 W/m 0,0 km/h (0 Bft) 95,74 %
13.07.2018 00:54 16,6 C 14,4 C 15,0 C 91 % 1017,6 hPa 0,0 l/m 0 min 0 min 0 W/m 4,5 km/h (1 Bft) 93,62 %
13.07.2018 00:56 16,5 C 14,4 C 15,0 C 91 % 1017,6 hPa 0,0 l/m 0 min 0 min 0 W/m 2,3 km/h (1 Bft) 93,62 %
13.07.2018 00:58 16,5 C 14,4 C 15,0 C 91 % 1017,7 hPa 0,0 l/m 0 min 0 min 0 W/m 4,5 km/h (1 Bft) 93,62 %
13.07.2018 01:00 16,4 C 14,4 C 15,0 C 91 % 1017,7 hPa 0,0 l/m 0 min 0 min 0 W/m 4,5 km/h (1 Bft) 95,65 %
13.07.2018 01:02 16,4 C 14,4 C 15,0 C 91 % 1017,7 hPa 0,0 l/m 0 min 0 min 0 W/m 4,5 km/h (1 Bft) 95,74 %
13.07.2018 01:04 16,3 C 14,4 C 15,0 C 91 % 1017,8 hPa 0,0 l/m 0 min 0 min 0 W/m 2,3 km/h (1 Bft) 95,74 %
13.07.2018 01:08 16,3 C 14,4 C 15,0 C 91 % 1017,7 hPa 0,0 l/m 0 min 0 min 0 W/m 2,3 km/h (1 Bft) 95,79 %
13.07.2018 01:10 16,2 C 14,4 C 15,0 C 91 % 1017,7 hPa 0,0 l/m 0 min 0 min 0 W/m 0,0 km/h (0 Bft) 100,00 %
13.07.2018 01:12 16,2 C 14,4 C 15,0 C 91 % 1017,7 hPa 0,0 l/m 0 min 0 min 0 W/m 0,0 km/h (0 Bft) 97,83 %
13.07.2018 01:14 16,2 C 14,4 C 15,0 C 91 % 1017,7 hPa 0,0 l/m 0 min 0 min 0 W/m 2,3 km/h (1 Bft) 97,87 %
13.07.2018 01:16 16,2 C 14,4 C 15,0 C 91 % 1017,7 hPa 0,0 l/m 0 min 0 min 0 W/m 6,8 km/h (2 Bft) 95,74 %
13.07.2018 01:18 16,1 C 14,4 C 14,4 C 91 % 1017,7 hPa 0,0 l/m 0 min 0 min 0 W/m 9,0 km/h (2 Bft) 97,87 %
13.07.2018 01:20 16,1 C 14,4 C 14,4 C 91 % 1017,7 hPa 0,0 l/m 0 min 0 min 0 W/m 4,5 km/h (1 Bft) 97,87 %
13.07.2018 01:22 16,1 C 14,4 C 15,0 C 91 % 1017,7 hPa 0,0 l/m 0 min 0 min 0 W/m 6,8 km/h (2 Bft) 95,74 %
13.07.2018 01:24 16,1 C 14,4 C 14,4 C 91 % 1017,8 hPa 0,0 l/m 0 min 0 min 0 W/m 4,5 km/h (1 Bft) 97,83 %
13.07.2018 01:26 16,1 C 14,4 C 14,4 C 91 % 1017,8 hPa 0,0 l/m 0 min 0 min 0 W/m 4,5 km/h (1 Bft) 95,74 %
13.07.2018 01:28 16,0 C 14,4 C 14,4 C 91 % 1017,8 hPa 0,0 l/m 0 min 0 min 0 W/m 2,3 km/h (1 Bft) 100,00 %
13.07.2018 01:30 16,0 C 14,4 C 14,4 C 91 % 1017,8 hPa 0,0 l/m 0 min 0 min 0 W/m 0,0 km/h (0 Bft) 100,00 %
13.07.2018 01:32 15,9 C 14,4 C 14,4 C 91 % 1017,8 hPa 0,0 l/m 0 min 0 min 0 W/m 0,0 km/h (0 Bft) 93,88 %
13.07.2018 01:34 15,9 C 14,4 C 14,4 C 91 % 1017,8 hPa 0,0 l/m 0 min 0 min 0 W/m 2,3 km/h (1 Bft) 97,87 %
13.07.2018 01:38 15,9 C 14,4 C 14,4 C 91 % 1017,7 hPa 0,0 l/m 0 min 0 min 0 W/m 2,3 km/h (1 Bft) 96,81 %
13.07.2018 01:40 15,9 C 14,4 C 14,4 C 91 % 1017,8 hPa 0,0 l/m 0 min 0 min 0 W/m 2,3 km/h (1 Bft) 97,87 %
13.07.2018 01:42 15,8 C 14,4 C 14,4 C 91 % 1017,8 hPa 0,0 l/m 0 min 0 min 0 W/m 2,3 km/h (1 Bft) 97,87 %
13.07.2018 01:44 15,8 C 14,4 C 14,4 C 91 % 1017,8 hPa 0,0 l/m 0 min 0 min 0 W/m 0,0 km/h (0 Bft) 97,87 %
13.07.2018 01:46 15,8 C 14,4 C 14,4 C 91 % 1017,8 hPa 0,0 l/m 0 min 0 min 0 W/m 0,0 km/h (0 Bft) 97,83 %
13.07.2018 01:48 15,8 C 13,9 C 13,9 C 91 % 1017,8 hPa 0,0 l/m 0 min 0 min 0 W/m 0,0 km/h (0 Bft) 97,87 %
13.07.2018 01:50 15,8 C 13,9 C 13,9 C 91 % 1017,8 hPa 0,0 l/m 0 min 0 min 0 W/m 2,3 km/h (1 Bft) 97,87 %
13.07.2018 01:52 15,7 C 13,9 C 13,9 C 91 % 1017,8 hPa 0,0 l/m 0 min 0 min 0 W/m 2,3 km/h (1 Bft) 97,92 %
13.07.2018 01:54 15,7 C 13,9 C 13,9 C 91 % 1017,8 hPa 0,0 l/m 0 min 0 min 0 W/m 0,0 km/h (0 Bft) 97,87 %
13.07.2018 01:56 15,7 C 13,9 C 13,9 C 91 % 1017,8 hPa 0,0 l/m 0 min 0 min 0 W/m 4,5 km/h (1 Bft) 97,87 %
13.07.2018 01:58 15,7 C 13,9 C 14,4 C 91 % 1017,8 hPa 0,0 l/m 0 min 0 min 0 W/m 2,3 km/h (1 Bft) 97,83 %
13.07.2018 02:00 15,6 C 13,9 C 14,4 C 91 % 1017,9 hPa 0,0 l/m 0 min 0 min 0 W/m 4,5 km/h (1 Bft) 97,87 %
13.07.2018 02:02 15,6 C 13,9 C 14,4 C 91 % 1017,8 hPa 0,0 l/m 0 min 0 min 0 W/m 2,3 km/h (1 Bft) 97,22 %
13.07.2018 02:04 15,6 C 13,9 C 14,4 C 91 % 1017,9 hPa 0,0 l/m 0 min 0 min 0 W/m 2,3 km/h (1 Bft) 97,87 %
13.07.2018 02:08 15,5 C 13,9 C 14,4 C 91 % 1017,9 hPa 0,0 l/m 0 min 0 min 0 W/m 0,0 km/h (0 Bft) 97,87 %
13.07.2018 02:10 15,5 C 13,9 C 14,4 C 91 % 1017,9 hPa 0,0 l/m 0 min 0 min 0 W/m 2,3 km/h (1 Bft) 97,83 %
13.07.2018 02:12 15,5 C 13,9 C 14,4 C 91 % 1017,9 hPa 0,0 l/m 0 min 0 min 0 W/m 4,5 km/h (1 Bft) 95,74 %
13.07.2018 02:14 15,4 C 13,9 C 14,4 C 91 % 1017,8 hPa 0,0 l/m 0 min 0 min 0 W/m 4,5 km/h (1 Bft) 97,87 %
13.07.2018 02:16 15,4 C 13,9 C 14,4 C 91 % 1017,9 hPa 0,0 l/m 0 min 0 min 0 W/m 2,3 km/h (1 Bft) 95,74 %
13.07.2018 02:18 15,4 C 13,9 C 14,4 C 91 % 1017,8 hPa 0,0 l/m 0 min 0 min 0 W/m 4,5 km/h (1 Bft) 97,87 %
13.07.2018 02:20 15,4 C 14,4 C 14,4 C 91 % 1017,8 hPa 0,0 l/m 0 min 0 min 0 W/m 4,5 km/h (1 Bft) 97,87 %
13.07.2018 02:22 15,4 C 13,9 C 14,4 C 91 % 1017,9 hPa 0,0 l/m 0 min 0 min 0 W/m 2,3 km/h (1 Bft) 97,83 %
13.07.2018 02:24 15,3 C 13,9 C 15,0 C 91 % 1017,8 hPa 0,0 l/m 0 min 0 min 0 W/m 4,5 km/h (1 Bft) 97,87 %
13.07.2018 02:26 15,3 C 13,9 C 15,0 C 91 % 1017,9 hPa 0,0 l/m 0 min 0 min 0 W/m 6,8 km/h (2 Bft) 97,96 %
13.07.2018 02:28 15,3 C 13,9 C 15,0 C 91 % 1017,9 hPa 0,0 l/m 0 min 0 min 0 W/m 4,5 km/h (1 Bft) 97,87 %
13.07.2018 02:30 15,3 C 13,9 C 15,0 C 91 % 1017,9 hPa 0,0 l/m 0 min 0 min 0 W/m 6,8 km/h (2 Bft) 100,00 %
13.07.2018 02:32 15,2 C 13,9 C 15,0 C 92 % 1018,0 hPa 0,0 l/m 0 min 0 min 0 W/m 4,5 km/h (1 Bft) 95,74 %
13.07.2018 02:34 15,2 C 13,9 C 14,4 C 92 % 1017,9 hPa 0,0 l/m 0 min 0 min 0 W/m 4,5 km/h (1 Bft) 97,87 %
13.07.2018 02:36 15,2 C 13,9 C 14,4 C 92 % 1017,9 hPa 0,0 l/m 0 min 0 min 0 W/m 6,8 km/h (2 Bft) 95,74 %
13.07.2018 02:38 15,2 C 13,9 C 14,4 C 91 % 1017,9 hPa 0,0 l/m 0 min 0 min 0 W/m 4,5 km/h (1 Bft) 97,87 %
13.07.2018 02:40 15,1 C 13,9 C 14,4 C 91 % 1017,9 hPa 0,0 l/m 0 min 0 min 0 W/m 4,5 km/h (1 Bft) 97,87 %
13.07.2018 02:42 15,1 C 13,9 C 14,4 C 91 % 1018,0 hPa 0,0 l/m 0 min 0 min 0 W/m 4,5 km/h (1 Bft) 97,87 %
13.07.2018 02:44 15,1 C 13,9 C 14,4 C 92 % 1018,0 hPa 0,0 l/m 0 min 0 min 0 W/m 2,3 km/h (1 Bft) 97,83 %
13.07.2018 02:46 15,1 C 13,9 C 15,0 C 92 % 1017,9 hPa 0,0 l/m 0 min 0 min 0 W/m 6,8 km/h (2 Bft) 97,87 %
13.07.2018 02:48 15,1 C 13,9 C 14,4 C 92 % 1018,0 hPa 0,0 l/m 0 min 0 min 0 W/m 4,5 km/h (1 Bft) 100,00 %
13.07.2018 02:50 15,1 C 13,9 C 14,4 C 92 % 1017,9 hPa 0,0 l/m 0 min 0 min 0 W/m 6,8 km/h (2 Bft) 97,87 %
13.07.2018 02:52 15,1 C 13,9 C 14,4 C 92 % 1017,9 hPa 0,0 l/m 0 min 0 min 0 W/m 4,5 km/h (1 Bft) 98,11 %
13.07.2018 02:54 15,1 C 13,9 C 14,4 C 92 % 1017,9 hPa 0,0 l/m 0 min 0 min 0 W/m 4,5 km/h (1 Bft) 97,87 %
13.07.2018 02:56 15,0 C 13,9 C 14,4 C 92 % 1018,0 hPa 0,0 l/m 0 min 0 min 0 W/m 6,8 km/h (2 Bft) 97,87 %
13.07.2018 02:58 15,0 C 13,9 C 14,4 C 92 % 1018,0 hPa 0,0 l/m 0 min 0 min 0 W/m 2,3 km/h (1 Bft) 100,00 %
13.07.2018 03:00 15,0 C 13,9 C 14,4 C 92 % 1018,0 hPa 0,0 l/m 0 min 0 min 0 W/m 2,3 km/h (1 Bft) 97,87 %
13.07.2018 03:02 15,0 C 13,9 C 14,4 C 92 % 1018,0 hPa 0,0 l/m 0 min 0 min 0 W/m 4,5 km/h (1 Bft) 97,96 %
13.07.2018 03:04 15,0 C 13,9 C 14,4 C 92 % 1018,1 hPa 0,0 l/m 0 min 0 min 0 W/m 0,0 km/h (0 Bft) 97,87 %
13.07.2018 03:06 14,9 C 13,9 C 14,4 C 92 % 1018,1 hPa 0,0 l/m 0 min 0 min 0 W/m 2,3 km/h (1 Bft) 97,22 %
13.07.2018 03:08 14,9 C 13,9 C 14,4 C 92 % 1018,0 hPa 0,0 l/m 0 min 0 min 0 W/m 0,0 km/h (0 Bft) 97,87 %
13.07.2018 03:10 14,9 C 13,9 C 14,4 C 92 % 1018,0 hPa 0,0 l/m 0 min 0 min 0 W/m 0,0 km/h (0 Bft) 95,74 %
13.07.2018 03:12 14,9 C 13,9 C 14,4 C 92 % 1018,0 hPa 0,0 l/m 0 min 0 min 0 W/m 0,0 km/h (0 Bft) 97,83 %
13.07.2018 03:14 14,9 C 13,9 C 14,4 C 92 % 1018,0 hPa 0,0 l/m 0 min 0 min 0 W/m 4,5 km/h (1 Bft) 97,87 %
13.07.2018 03:16 14,9 C 13,9 C 14,4 C 92 % 1018,0 hPa 0,0 l/m 0 min 0 min 0 W/m 0,0 km/h (0 Bft) 95,74 %
13.07.2018 03:18 14,9 C 13,9 C 14,4 C 93 % 1018,0 hPa 0,0 l/m 0 min 0 min 0 W/m 0,0 km/h (0 Bft) 97,87 %
13.07.2018 03:20 14,9 C 13,9 C 14,4 C 92 % 1018,0 hPa 0,0 l/m 0 min 0 min 0 W/m 0,0 km/h (0 Bft) 98,28 %
13.07.2018 03:22 14,9 C 13,9 C 14,4 C 92 % 1018,0 hPa 0,0 l/m 0 min 0 min 0 W/m 2,3 km/h (1 Bft) 95,74 %
13.07.2018 03:24 14,9 C 13,9 C 13,9 C 92 % 1018,0 hPa 0,0 l/m 0 min 0 min 0 W/m 0,0 km/h (0 Bft) 94,29 %
13.07.2018 03:26 14,8 C 13,9 C 13,9 C 92 % 1018,0 hPa 0,0 l/m 0 min 0 min 0 W/m 2,3 km/h (1 Bft) 95,74 %
13.07.2018 03:28 14,8 C 13,9 C 14,4 C 92 % 1018,0 hPa 0,0 l/m 0 min 0 min 0 W/m 4,5 km/h (1 Bft) 95,74 %
13.07.2018 03:30 14,8 C 13,9 C 13,9 C 92 % 1018,0 hPa 0,0 l/m 0 min 0 min 0 W/m 2,3 km/h (1 Bft) 95,74 %
13.07.2018 03:32 14,8 C 13,9 C 13,9 C 92 % 1018,1 hPa 0,0 l/m 0 min 0 min 0 W/m 0,0 km/h (0 Bft) 93,62 %
13.07.2018 03:34 14,8 C 13,9 C 13,9 C 92 % 1018,0 hPa 0,0 l/m 0 min 0 min 0 W/m 0,0 km/h (0 Bft) 95,74 %
13.07.2018 03:36 14,8 C 13,9 C 13,9 C 92 % 1018,0 hPa 0,0 l/m 0 min 0 min 0 W/m 0,0 km/h (0 Bft) 95,65 %
13.07.2018 03:38 14,8 C 13,9 C 13,9 C 93 % 1018,0 hPa 0,0 l/m 0 min 0 min 0 W/m 2,3 km/h (1 Bft) 95,74 %
13.07.2018 03:40 14,7 C 13,3 C 13,9 C 93 % 1018,0 hPa 0,0 l/m 0 min 0 min 0 W/m 4,5 km/h (1 Bft) 95,74 %
13.07.2018 03:42 14,7 C 13,3 C 13,9 C 93 % 1018,0 hPa 0,0 l/m 0 min 0 min 0 W/m 4,5 km/h (1 Bft) 95,74 %
13.07.2018 03:44 14,7 C 13,3 C 13,9 C 93 % 1018,0 hPa 0,0 l/m 0 min 0 min 0 W/m 2,3 km/h (1 Bft) 95,74 %
13.07.2018 03:46 14,7 C 13,3 C 13,9 C 93 % 1018,0 hPa 0,0 l/m 0 min 0 min 0 W/m 0,0 km/h (0 Bft) 91,84 %
13.07.2018 03:48 14,7 C 13,3 C 13,9 C 93 % 1018,0 hPa 0,0 l/m 0 min 0 min 0 W/m 2,3 km/h (1 Bft) 95,74 %
13.07.2018 03:50 14,7 C 13,3 C 13,9 C 93 % 1018,1 hPa 0,0 l/m 0 min 0 min 0 W/m 0,0 km/h (0 Bft) 97,87 %
13.07.2018 03:52 14,7 C 13,3 C 13,9 C 93 % 1018,1 hPa 0,0 l/m 0 min 0 min 0 W/m 4,5 km/h (1 Bft) 97,87 %
13.07.2018 03:54 14,6 C 13,3 C 13,9 C 93 % 1018,1 hPa 0,0 l/m 0 min 0 min 0 W/m 4,5 km/h (1 Bft) 97,87 %
13.07.2018 03:56 14,6 C 13,3 C 13,9 C 93 % 1018,1 hPa 0,0 l/m 0 min 0 min 0 W/m 0,0 km/h (0 Bft) 97,83 %
13.07.2018 03:58 14,6 C 13,3 C 13,9 C 93 % 1018,1 hPa 0,0 l/m 0 min 0 min 0 W/m 0,0 km/h (0 Bft) 95,74 %
13.07.2018 04:00 14,6 C 13,3 C 13,9 C 93 % 1018,2 hPa 0,0 l/m 0 min 0 min 0 W/m 0,0 km/h (0 Bft) 97,87 %
13.07.2018 04:02 14,6 C 13,3 C 13,9 C 93 % 1018,1 hPa 0,0 l/m 0 min 0 min 0 W/m 0,0 km/h (0 Bft) 94,44 %
13.07.2018 04:04 14,5 C 13,3 C 13,9 C 93 % 1018,2 hPa 0,0 l/m 0 min 0 min 0 W/m 0,0 km/h (0 Bft) 95,74 %
13.07.2018 04:08 14,5 C 13,3 C 13,9 C 93 % 1018,2 hPa 0,0 l/m 0 min 0 min 0 W/m 0,0 km/h (0 Bft) 100,00 %
13.07.2018 04:10 14,5 C 13,3 C 13,9 C 93 % 1018,1 hPa 0,0 l/m 0 min 0 min 0 W/m 0,0 km/h (0 Bft) 95,74 %
13.07.2018 04:12 14,5 C 13,3 C 13,9 C 93 % 1018,1 hPa 0,0 l/m 0 min 0 min 0 W/m 0,0 km/h (0 Bft) 97,87 %
13.07.2018 04:14 14,4 C 13,3 C 13,9 C 93 % 1018,1 hPa 0,0 l/m 0 min 0 min 0 W/m 0,0 km/h (0 Bft) 100,00 %
13.07.2018 04:16 14,4 C 13,3 C 13,9 C 93 % 1018,1 hPa 0,0 l/m 0 min 0 min 0 W/m 0,0 km/h (0 Bft) 97,87 %
13.07.2018 04:18 14,4 C 13,3 C 13,9 C 93 % 1018,1 hPa 0,0 l/m 0 min 0 min 0 W/m 0,0 km/h (0 Bft) 100,00 %
13.07.2018 04:20 14,4 C 13,3 C 13,9 C 93 % 1018,2 hPa 0,0 l/m 0 min 0 min 0 W/m 0,0 km/h (0 Bft) 100,00 %
13.07.2018 04:22 14,4 C 13,3 C 13,3 C 93 % 1018,2 hPa 0,0 l/m 0 min 0 min 0 W/m 0,0 km/h (0 Bft) 100,00 %
13.07.2018 04:24 14,3 C 13,3 C 13,9 C 93 % 1018,2 hPa 0,0 l/m 0 min 0 min 0 W/m 0,0 km/h (0 Bft) 97,87 %
13.07.2018 04:26 14,3 C 13,3 C 13,9 C 93 % 1018,1 hPa 0,0 l/m 0 min 0 min 0 W/m 0,0 km/h (0 Bft) 100,00 %
13.07.2018 04:28 14,3 C 13,3 C 13,9 C 93 % 1018,1 hPa 0,0 l/m 0 min 0 min 0 W/m 0,0 km/h (0 Bft) 100,00 %
13.07.2018 04:30 14,3 C 12,8 C 13,9 C 93 % 1018,2 hPa 0,0 l/m 0 min 0 min 0 W/m 0,0 km/h (0 Bft) 100,00 %
13.07.2018 04:32 14,3 C 12,8 C 13,9 C 93 % 1018,1 hPa 0,0 l/m 0 min 0 min 0 W/m 0,0 km/h (0 Bft) 100,00 %
13.07.2018 04:34 14,3 C 12,8 C 13,9 C 93 % 1018,1 hPa 0,0 l/m 0 min 0 min 0 W/m 0,0 km/h (0 Bft) 97,87 %
13.07.2018 04:36 14,3 C 13,3 C 13,9 C 93 % 1018,1 hPa 0,0 l/m 0 min 0 min 0 W/m 0,0 km/h (0 Bft) 100,00 %
13.07.2018 04:38 14,2 C 13,3 C 13,9 C 93 % 1018,1 hPa 0,0 l/m 0 min 0 min 0 W/m 0,0 km/h (0 Bft) 100,00 %
13.07.2018 04:40 14,2 C 13,3 C 13,9 C 93 % 1018,1 hPa 0,0 l/m 0 min 0 min 0 W/m 0,0 km/h (0 Bft) 100,00 %
13.07.2018 04:42 14,2 C 13,3 C 13,9 C 93 % 1018,2 hPa 0,0 l/m 0 min 0 min 0 W/m 0,0 km/h (0 Bft) 97,87 %
13.07.2018 04:44 14,2 C 13,3 C 13,9 C 93 % 1018,2 hPa 0,0 l/m 0 min 0 min 0 W/m 2,3 km/h (1 Bft) 100,00 %
13.07.2018 04:46 14,2 C 12,8 C 13,9 C 93 % 1018,2 hPa 0,0 l/m 0 min 0 min 0 W/m 2,3 km/h (1 Bft) 100,00 %
13.07.2018 04:48 14,2 C 12,8 C 13,9 C 93 % 1018,2 hPa 0,0 l/m 0 min 0 min 0 W/m 2,3 km/h (1 Bft) 100,00 %
13.07.2018 04:50 14,2 C 12,8 C 13,9 C 93 % 1018,2 hPa 0,0 l/m 0 min 0 min 0 W/m 2,3 km/h (1 Bft) 100,00 %
13.07.2018 04:52 14,2 C 12,8 C 13,9 C 93 % 1018,2 hPa 0,0 l/m 0 min 0 min 0 W/m 2,3 km/h (1 Bft) 100,00 %
13.07.2018 04:54 14,2 C 13,3 C 13,9 C 93 % 1018,2 hPa 0,0 l/m 0 min 0 min 0 W/m 0,0 km/h (0 Bft) 100,00 %
13.07.2018 04:56 14,2 C 13,3 C 13,3 C 94 % 1018,2 hPa 0,0 l/m 0 min 0 min 0 W/m 0,0 km/h (0 Bft) 100,00 %
13.07.2018 04:58 14,2 C 13,3 C 13,3 C 94 % 1018,3 hPa 0,0 l/m 0 min 0 min 0 W/m 2,3 km/h (1 Bft) 100,00 %
13.07.2018 05:00 14,2 C 13,3 C 13,3 C 94 % 1018,3 hPa 0,0 l/m 0 min 0 min 0 W/m 2,3 km/h (1 Bft) 100,00 %
13.07.2018 05:02 14,2 C 13,3 C 13,3 C 94 % 1018,3 hPa 0,0 l/m 0 min 0 min 0 W/m 2,3 km/h (1 Bft) 100,00 %
13.07.2018 05:04 14,2 C 13,3 C 13,3 C 94 % 1018,3 hPa 0,0 l/m 0 min 0 min 0 W/m 0,0 km/h (0 Bft) 100,00 %
13.07.2018 05:06 14,2 C 12,8 C 13,3 C 94 % 1018,2 hPa 0,0 l/m 0 min 0 min 0 W/m 2,3 km/h (1 Bft) 100,00 %
13.07.2018 05:08 14,2 C 13,3 C 13,3 C 94 % 1018,3 hPa 0,0 l/m 0 min 0 min 0 W/m 0,0 km/h (0 Bft) 97,83 %
13.07.2018 05:10 14,2 C 12,8 C 13,3 C 94 % 1018,3 hPa 0,0 l/m 0 min 0 min 0 W/m 2,3 km/h (1 Bft) 100,00 %
13.07.2018 05:12 14,2 C 12,8 C 13,3 C 94 % 1018,4 hPa 0,0 l/m 0 min 0 min 0 W/m 2,3 km/h (1 Bft) 100,00 %
13.07.2018 05:14 14,2 C 12,8 C 13,3 C 94 % 1018,3 hPa 0,0 l/m 0 min 0 min 0 W/m 2,3 km/h (1 Bft) 100,00 %
13.07.2018 05:16 14,2 C 12,8 C 13,3 C 94 % 1018,4 hPa 0,0 l/m 0 min 0 min 0 W/m 0,0 km/h (0 Bft) 100,00 %
13.07.2018 05:18 14,2 C 12,8 C 13,3 C 94 % 1018,4 hPa 0,0 l/m 0 min 0 min 0 W/m 0,0 km/h (0 Bft) 97,87 %
13.07.2018 05:20 14,2 C 12,8 C 13,3 C 94 % 1018,4 hPa 0,0 l/m 0 min 0 min 0 W/m 0,0 km/h (0 Bft) 97,83 %
13.07.2018 05:22 14,2 C 12,8 C 13,3 C 94 % 1018,4 hPa 0,0 l/m 0 min 0 min 0 W/m 0,0 km/h (0 Bft) 97,87 %
13.07.2018 05:24 14,2 C 12,8 C 13,3 C 94 % 1018,5 hPa 0,0 l/m 0 min 0 min 0 W/m 0,0 km/h (0 Bft) 97,87 %
13.07.2018 05:26 14,2 C 12,8 C 13,3 C 95 % 1018,5 hPa 0,0 l/m 0 min 0 min 0 W/m 0,0 km/h (0 Bft) 100,00 %
13.07.2018 05:28 14,2 C 12,8 C 13,3 C 95 % 1018,4 hPa 0,0 l/m 0 min 0 min 0 W/m 0,0 km/h (0 Bft) 95,74 %
13.07.2018 05:30 14,2 C 12,8 C 13,3 C 95 % 1018,5 hPa 0,0 l/m 0 min 0 min 0 W/m 0,0 km/h (0 Bft) 93,62 %
13.07.2018 05:32 14,1 C 12,8 C 13,3 C 95 % 1018,5 hPa 0,0 l/m 0 min 0 min 4 W/m 0,0 km/h (0 Bft) 97,83 %
13.07.2018 05:34 14,1 C 12,8 C 13,3 C 95 % 1018,5 hPa 0,0 l/m 0 min 0 min 5 W/m 2,3 km/h (1 Bft) 97,87 %
13.07.2018 05:35 14,1 C 12,8 C 13,3 C 95 % 1018,6 hPa 0,0 l/m 0 min 0 min 5 W/m 2,3 km/h (1 Bft) 100,00 %
13.07.2018 05:40 14,0 C 12,8 C 13,3 C 95 % 1018,6 hPa 0,0 l/m 0 min 0 min 5 W/m 0,0 km/h (0 Bft) 100,00 %
13.07.2018 05:42 14,0 C 12,8 C 13,3 C 95 % 1018,6 hPa 0,0 l/m 0 min 0 min 7 W/m 0,0 km/h (0 Bft) 95,74 %
13.07.2018 05:44 14,0 C 12,8 C 13,3 C 95 % 1018,6 hPa 0,0 l/m 0 min 0 min 8 W/m 0,0 km/h (0 Bft) 97,83 %
13.07.2018 05:46 14,0 C 12,8 C 13,3 C 95 % 1018,6 hPa 0,0 l/m 0 min 0 min 9 W/m 0,0 km/h (0 Bft) 97,87 %
13.07.2018 05:48 13,9 C 12,8 C 13,3 C 95 % 1018,6 hPa 0,0 l/m 0 min 0 min 10 W/m 2,3 km/h (1 Bft) 97,87 %
13.07.2018 05:50 13,9 C 12,8 C 13,3 C 95 % 1018,6 hPa 0,0 l/m 0 min 0 min 11 W/m 2,3 km/h (1 Bft) 97,87 %
13.07.2018 05:52 13,9 C 12,8 C 13,3 C 95 % 1018,6 hPa 0,0 l/m 0 min 0 min 11 W/m 0,0 km/h (0 Bft) 97,87 %
13.07.2018 05:54 13,9 C 12,8 C 13,3 C 95 % 1018,6 hPa 0,0 l/m 0 min 0 min 12 W/m 0,0 km/h (0 Bft) 97,87 %
13.07.2018 05:56 13,9 C 12,8 C 13,3 C 95 % 1018,7 hPa 0,0 l/m 0 min 0 min 12 W/m 0,0 km/h (0 Bft) 97,83 %
13.07.2018 05:58 13,9 C 12,8 C 13,3 C 95 % 1018,6 hPa 0,0 l/m 0 min 0 min 13 W/m 0,0 km/h (0 Bft) 97,87 %
13.07.2018 06:00 13,9 C 12,8 C 13,3 C 95 % 1018,7 hPa 0,0 l/m 0 min 0 min 14 W/m 0,0 km/h (0 Bft) 95,74 %
13.07.2018 06:02 13,9 C 12,8 C 13,3 C 95 % 1018,6 hPa 0,0 l/m 0 min 0 min 15 W/m 2,3 km/h (1 Bft) 97,87 %
13.07.2018 06:04 13,9 C 12,8 C 13,3 C 95 % 1018,6 hPa 0,0 l/m 0 min 0 min 16 W/m 0,0 km/h (0 Bft) 93,62 %
13.07.2018 06:08 13,9 C 12,8 C 13,3 C 95 % 1018,6 hPa 0,0 l/m 0 min 0 min 17 W/m 0,0 km/h (0 Bft) 94,62 %
13.07.2018 06:10 13,9 C 12,8 C 13,3 C 95 % 1018,6 hPa 0,0 l/m 0 min 0 min 18 W/m 2,3 km/h (1 Bft) 95,74 %
13.07.2018 06:12 13,9 C 12,8 C 13,3 C 95 % 1018,7 hPa 0,0 l/m 0 min 0 min 19 W/m 0,0 km/h (0 Bft) 95,74 %
13.07.2018 06:14 13,9 C 12,8 C 13,3 C 95 % 1018,7 hPa 0,0 l/m 0 min 0 min 19 W/m 0,0 km/h (0 Bft) 98,11 %
13.07.2018 06:16 13,9 C 12,8 C 13,3 C 95 % 1018,7 hPa 0,0 l/m 0 min 0 min 21 W/m 2,3 km/h (1 Bft) 97,56 %
13.07.2018 06:18 13,9 C 12,8 C 13,3 C 95 % 1018,6 hPa 0,0 l/m 0 min 0 min 21 W/m 2,3 km/h (1 Bft) 97,83 %
13.07.2018 06:20 13,8 C 12,8 C 13,3 C 95 % 1018,6 hPa 0,0 l/m 0 min 0 min 23 W/m 2,3 km/h (1 Bft) 98,11 %
13.07.2018 06:22 13,8 C 12,8 C 13,3 C 95 % 1018,6 hPa 0,0 l/m 0 min 0 min 23 W/m 0,0 km/h (0 Bft) 97,87 %
13.07.2018 06:24 13,8 C 12,8 C 13,3 C 95 % 1018,6 hPa 0,0 l/m 0 min 0 min 25 W/m 0,0 km/h (0 Bft) 97,87 %
13.07.2018 06:26 13,8 C 12,8 C 13,3 C 95 % 1018,6 hPa 0,0 l/m 0 min 0 min 25 W/m 0,0 km/h (0 Bft) 97,56 %
13.07.2018 06:28 13,8 C 12,8 C 13,3 C 95 % 1018,7 hPa 0,0 l/m 0 min 0 min 26 W/m 2,3 km/h (1 Bft) 95,74 %
13.07.2018 06:30 13,8 C 12,8 C 13,3 C 96 % 1018,6 hPa 0,0 l/m 0 min 0 min 26 W/m 0,0 km/h (0 Bft) 95,65 %
13.07.2018 06:32 13,8 C 12,8 C 13,3 C 96 % 1018,7 hPa 0,0 l/m 0 min 0 min 26 W/m 2,3 km/h (1 Bft) 95,74 %
13.07.2018 06:34 13,8 C 12,8 C 13,3 C 96 % 1018,7 hPa 0,0 l/m 0 min 0 min 28 W/m 0,0 km/h (0 Bft) 95,74 %
13.07.2018 06:36 13,8 C 12,8 C 13,3 C 95 % 1018,6 hPa 0,0 l/m 0 min 0 min 28 W/m 0,0 km/h (0 Bft) 96,43 %
13.07.2018 06:38 13,8 C 12,8 C 13,3 C 95 % 1018,7 hPa 0,0 l/m 0 min 0 min 30 W/m 2,3 km/h (1 Bft) 95,74 %
13.07.2018 06:40 13,7 C 12,8 C 13,3 C 95 % 1018,6 hPa 0,0 l/m 0 min 0 min 30 W/m 2,3 km/h (1 Bft) 91,30 %
13.07.2018 06:42 13,8 C 12,8 C 13,3 C 95 % 1018,6 hPa 0,0 l/m 0 min 0 min 32 W/m 0,0 km/h (0 Bft) 95,74 %
13.07.2018 06:44 13,7 C 12,8 C 13,3 C 95 % 1018,6 hPa 0,0 l/m 0 min 0 min 32 W/m 0,0 km/h (0 Bft) 95,74 %
13.07.2018 06:46 13,7 C 13,3 C 13,3 C 95 % 1018,6 hPa 0,0 l/m 0 min 0 min 33 W/m 0,0 km/h (0 Bft) 93,62 %
13.07.2018 06:48 13,7 C 13,3 C 13,3 C 96 % 1018,5 hPa 0,0 l/m 0 min 0 min 33 W/m 0,0 km/h (0 Bft) 93,62 %
13.07.2018 06:50 13,8 C 13,3 C 13,3 C 96 % 1018,6 hPa 0,0 l/m 0 min 0 min 33 W/m 0,0 km/h (0 Bft) 95,74 %
13.07.2018 06:52 13,8 C 13,3 C 13,3 C 96 % 1018,7 hPa 0,0 l/m 0 min 0 min 34 W/m 4,5 km/h (1 Bft) 95,65 %
13.07.2018 06:54 13,8 C 13,3 C 13,3 C 96 % 1018,6 hPa 0,0 l/m 0 min 0 min 35 W/m 2,3 km/h (1 Bft) 93,62 %
13.07.2018 06:56 13,8 C 13,3 C 13,3 C 96 % 1018,6 hPa 0,0 l/m 0 min 0 min 35 W/m 4,5 km/h (1 Bft) 95,74 %
13.07.2018 06:58 13,9 C 13,9 C 13,3 C 96 % 1018,7 hPa 0,0 l/m 0 min 0 min 37 W/m 11,3 km/h (2 Bft) 93,62 %
13.07.2018 07:00 13,9 C 13,9 C 13,3 C 96 % 1018,7 hPa 0,0 l/m 0 min 0 min 38 W/m 4,5 km/h (1 Bft) 95,74 %
13.07.2018 07:02 13,9 C 13,9 C 13,3 C 96 % 1018,7 hPa 0,0 l/m 0 min 0 min 39 W/m 0,0 km/h (0 Bft) 93,75 %
13.07.2018 07:04 13,9 C 13,9 C 13,9 C 96 % 1018,7 hPa 0,0 l/m 0 min 0 min 39 W/m 4,5 km/h (1 Bft) 95,74 %
13.07.2018 07:06 14,0 C 13,9 C 13,9 C 96 % 1018,7 hPa 0,0 l/m 0 min 0 min 40 W/m 4,5 km/h (1 Bft) 94,44 %
13.07.2018 07:08 14,0 C 13,9 C 13,9 C 96 % 1018,7 hPa 0,0 l/m 0 min 0 min 40 W/m 4,5 km/h (1 Bft) 95,74 %
13.07.2018 07:10 14,0 C 13,9 C 13,9 C 96 % 1018,7 hPa 0,0 l/m 0 min 0 min 43 W/m 4,5 km/h (1 Bft) 95,74 %
13.07.2018 07:12 14,1 C 13,9 C 13,9 C 96 % 1018,7 hPa 0,0 l/m 0 min 0 min 44 W/m 2,3 km/h (1 Bft) 95,74 %
13.07.2018 07:14 14,1 C 13,9 C 13,9 C 96 % 1018,8 hPa 0,0 l/m 0 min 0 min 45 W/m 0,0 km/h (0 Bft) 97,87 %
13.07.2018 07:16 14,1 C 13,9 C 13,9 C 96 % 1018,8 hPa 0,0 l/m 0 min 0 min 46 W/m 2,3 km/h (1 Bft) 97,87 %
13.07.2018 07:18 14,2 C 13,9 C 13,9 C 96 % 1018,8 hPa 0,0 l/m 0 min 0 min 46 W/m 4,5 km/h (1 Bft) 95,65 %
13.07.2018 07:20 14,2 C 13,9 C 13,9 C 96 % 1018,8 hPa 0,0 l/m 0 min 0 min 46 W/m 4,5 km/h (1 Bft) 96,61 %
13.07.2018 07:22 14,2 C 14,4 C 13,9 C 96 % 1018,7 hPa 0,0 l/m 0 min 0 min 46 W/m 2,3 km/h (1 Bft) 94,29 %
13.07.2018 07:24 14,2 C 14,4 C 13,9 C 96 % 1018,8 hPa 0,0 l/m 0 min 0 min 47 W/m 9,0 km/h (2 Bft) 97,87 %
13.07.2018 07:26 14,2 C 14,4 C 13,9 C 97 % 1018,8 hPa 0,0 l/m 0 min 0 min 47 W/m 4,5 km/h (1 Bft) 100,00 %
13.07.2018 07:28 14,2 C 14,4 C 13,9 C 97 % 1018,8 hPa 0,0 l/m 0 min 0 min 48 W/m 4,5 km/h (1 Bft) 100,00 %
13.07.2018 07:30 14,2 C 14,4 C 13,9 C 97 % 1018,8 hPa 0,0 l/m 0 min 0 min 49 W/m 6,8 km/h (2 Bft) 100,00 %
13.07.2018 07:32 14,2 C 14,4 C 14,4 C 97 % 1018,8 hPa 0,0 l/m 0 min 0 min 49 W/m 6,8 km/h (2 Bft) 97,92 %
13.07.2018 07:34 14,2 C 14,4 C 14,4 C 97 % 1018,8 hPa 0,0 l/m 0 min 0 min 51 W/m 0,0 km/h (0 Bft) 97,87 %
13.07.2018 07:36 14,3 C 14,4 C 14,4 C 97 % 1018,8 hPa 0,0 l/m 0 min 0 min 51 W/m 0,0 km/h (0 Bft) 100,00 %
13.07.2018 07:38 14,3 C 14,4 C 14,4 C 97 % 1018,8 hPa 0,0 l/m 0 min 0 min 52 W/m 0,0 km/h (0 Bft) 100,00 %
13.07.2018 07:40 14,3 C 15,0 C 14,4 C 97 % 1018,9 hPa 0,0 l/m 0 min 0 min 53 W/m 9,0 km/h (2 Bft) 97,83 %
13.07.2018 07:42 14,4 C 15,0 C 14,4 C 97 % 1018,8 hPa 0,0 l/m 0 min 0 min 54 W/m 6,8 km/h (2 Bft) 100,00 %
13.07.2018 07:44 14,4 C 15,0 C 14,4 C 97 % 1018,8 hPa 0,0 l/m 0 min 0 min 54 W/m 6,8 km/h (2 Bft) 100,00 %
13.07.2018 07:46 14,5 C 15,0 C 14,4 C 97 % 1018,8 hPa 0,0 l/m 0 min 0 min 56 W/m 6,8 km/h (2 Bft) 100,00 %
13.07.2018 07:48 14,5 C 15,0 C 14,4 C 97 % 1018,9 hPa 0,0 l/m 0 min 0 min 56 W/m 4,5 km/h (1 Bft) 95,74 %
13.07.2018 07:50 14,6 C 15,0 C 14,4 C 97 % 1018,9 hPa 0,0 l/m 0 min 0 min 58 W/m 2,3 km/h (1 Bft) 97,87 %
13.07.2018 07:52 14,6 C 15,0 C 14,4 C 97 % 1018,9 hPa 0,0 l/m 0 min 0 min 58 W/m 2,3 km/h (1 Bft) 100,00 %
13.07.2018 07:54 14,6 C 15,0 C 14,4 C 97 % 1018,9 hPa 0,0 l/m 0 min 0 min 58 W/m 4,5 km/h (1 Bft) 97,87 %
13.07.2018 07:56 14,7 C 15,6 C 14,4 C 97 % 1018,9 hPa 0,0 l/m 0 min 0 min 60 W/m 0,0 km/h (0 Bft) 97,87 %
13.07.2018 07:58 14,7 C 15,6 C 15,0 C 97 % 1018,9 hPa 0,0 l/m 0 min 0 min 60 W/m 0,0 km/h (0 Bft) 100,00 %
13.07.2018 08:00 14,7 C 15,6 C 15,0 C 97 % 1019,0 hPa 0,0 l/m 0 min 0 min 60 W/m 2,3 km/h (1 Bft) 97,87 %
13.07.2018 08:02 14,8 C 15,6 C 15,0 C 97 % 1019,0 hPa 0,0 l/m 0 min 0 min 60 W/m 2,3 km/h (1 Bft) 98,08 %
13.07.2018 08:04 14,8 C 15,6 C 15,0 C 97 % 1018,9 hPa 0,0 l/m 0 min 0 min 62 W/m 9,0 km/h (2 Bft) 97,73 %
13.07.2018 08:06 14,8 C 15,6 C 15,0 C 97 % 1018,9 hPa 0,0 l/m 0 min 0 min 62 W/m 6,8 km/h (2 Bft) 98,11 %
13.07.2018 08:08 14,8 C 15,6 C 15,0 C 97 % 1018,9 hPa 0,0 l/m 0 min 0 min 62 W/m 2,3 km/h (1 Bft) 97,87 %
13.07.2018 08:10 14,9 C 15,6 C 15,0 C 97 % 1018,9 hPa 0,0 l/m 0 min 0 min 62 W/m 6,8 km/h (2 Bft) 97,87 %
13.07.2018 08:12 14,9 C 16,1 C 15,0 C 97 % 1018,9 hPa 0,0 l/m 0 min 0 min 62 W/m 4,5 km/h (1 Bft) 95,74 %
13.07.2018 08:14 14,9 C 16,1 C 15,0 C 97 % 1018,8 hPa 0,0 l/m 0 min 0 min 63 W/m 0,0 km/h (0 Bft) 97,83 %
13.07.2018 08:16 15,0 C 16,1 C 15,0 C 97 % 1018,8 hPa 0,0 l/m 0 min 0 min 65 W/m 9,0 km/h (2 Bft) 97,87 %
13.07.2018 08:18 15,1 C 16,1 C 15,0 C 97 % 1018,9 hPa 0,0 l/m 0 min 0 min 105 W/m 9,0 km/h (2 Bft) 97,87 %
13.07.2018 08:20 15,1 C 16,1 C 15,0 C 97 % 1018,9 hPa 0,0 l/m 2 min 0 min 229 W/m 9,0 km/h (2 Bft) 97,87 %
13.07.2018 08:22 15,1 C 16,1 C 15,0 C 97 % 1018,8 hPa 0,0 l/m 2 min 0 min 262 W/m 6,8 km/h (2 Bft) 97,87 %
13.07.2018 08:24 15,2 C 16,1 C 15,0 C 97 % 1018,8 hPa 0,0 l/m 2 min 0 min 263 W/m 4,5 km/h (1 Bft) 95,65 %
13.07.2018 08:26 15,2 C 16,7 C 15,6 C 97 % 1018,8 hPa 0,0 l/m 2 min 0 min 276 W/m 0,0 km/h (0 Bft) 97,87 %
13.07.2018 08:28 15,3 C 16,7 C 15,6 C 98 % 1018,8 hPa 0,0 l/m 2 min 0 min 278 W/m 0,0 km/h (0 Bft) 97,87 %
13.07.2018 08:30 15,3 C 16,7 C 15,6 C 98 % 1018,9 hPa 0,0 l/m 2 min 0 min 226 W/m 0,0 km/h (0 Bft) 97,87 %
13.07.2018 08:32 15,3 C 16,7 C 15,6 C 97 % 1018,9 hPa 0,0 l/m 2 min 0 min 209 W/m 4,5 km/h (1 Bft) 95,92 %
13.07.2018 08:34 15,4 C 16,7 C 15,6 C 97 % 1018,9 hPa 0,0 l/m 2 min 0 min 252 W/m 4,5 km/h (1 Bft) 97,87 %
13.07.2018 08:36 15,4 C 16,7 C 15,6 C 97 % 1018,9 hPa 0,0 l/m 2 min 0 min 285 W/m 4,5 km/h (1 Bft) 97,37 %
13.07.2018 08:38 15,5 C 17,2 C 15,6 C 97 % 1018,9 hPa 0,0 l/m 2 min 0 min 311 W/m 4,5 km/h (1 Bft) 97,83 %
13.07.2018 08:40 15,6 C 17,2 C 15,6 C 98 % 1018,9 hPa 0,0 l/m 2 min 0 min 319 W/m 6,8 km/h (2 Bft) 97,87 %
13.07.2018 08:42 15,6 C 17,2 C 15,6 C 98 % 1018,9 hPa 0,0 l/m 2 min 0 min 322 W/m 6,8 km/h (2 Bft) 95,74 %
13.07.2018 08:44 15,7 C 17,2 C 16,1 C 98 % 1019,0 hPa 0,0 l/m 2 min 0 min 325 W/m 4,5 km/h (1 Bft) 97,87 %
13.07.2018 08:46 15,7 C 17,2 C 16,1 C 98 % 1019,0 hPa 0,0 l/m 2 min 0 min 333 W/m 4,5 km/h (1 Bft) 95,74 %
13.07.2018 08:48 15,8 C 17,2 C 16,1 C 98 % 1018,9 hPa 0,0 l/m 2 min 0 min 332 W/m 6,8 km/h (2 Bft) 95,74 %
13.07.2018 08:50 15,8 C 17,2 C 16,1 C 98 % 1019,0 hPa 0,0 l/m 2 min 0 min 340 W/m 6,8 km/h (2 Bft) 100,00 %
13.07.2018 08:52 15,8 C 17,2 C 16,1 C 98 % 1019,0 hPa 0,0 l/m 2 min 0 min 350 W/m 4,5 km/h (1 Bft) 100,00 %
13.07.2018 08:54 15,9 C 17,2 C 16,1 C 98 % 1019,0 hPa 0,0 l/m 2 min 0 min 357 W/m 4,5 km/h (1 Bft) 100,00 %
13.07.2018 08:56 15,9 C 17,2 C 16,1 C 98 % 1019,0 hPa 0,0 l/m 2 min 0 min 363 W/m 6,8 km/h (2 Bft) 100,00 %
13.07.2018 08:58 15,9 C 17,8 C 16,1 C 98 % 1019,0 hPa 0,0 l/m 2 min 0 min 374 W/m 6,8 km/h (2 Bft) 100,00 %
13.07.2018 09:00 16,0 C 17,8 C 16,1 C 98 % 1019,0 hPa 0,0 l/m 2 min 0 min 378 W/m 4,5 km/h (1 Bft) 100,00 %
13.07.2018 09:02 16,1 C 17,8 C 16,1 C 98 % 1019,0 hPa 0,0 l/m 2 min 0 min 387 W/m 4,5 km/h (1 Bft) 97,87 %
13.07.2018 09:04 16,1 C 17,8 C 16,7 C 98 % 1019,0 hPa 0,0 l/m 2 min 0 min 396 W/m 4,5 km/h (1 Bft) 100,00 %
13.07.2018 09:06 16,1 C 18,3 C 16,7 C 98 % 1019,0 hPa 0,0 l/m 2 min 0 min 401 W/m 2,3 km/h (1 Bft) 100,00 %
13.07.2018 09:08 16,2 C 18,3 C 16,7 C 97 % 1019,0 hPa 0,0 l/m 2 min 0 min 408 W/m 6,8 km/h (2 Bft) 100,00 %
13.07.2018 09:10 16,2 C 18,3 C 16,7 C 98 % 1019,0 hPa 0,0 l/m 2 min 0 min 418 W/m 6,8 km/h (2 Bft) 100,00 %
13.07.2018 09:12 16,3 C 18,3 C 16,7 C 98 % 1019,1 hPa 0,0 l/m 2 min 0 min 423 W/m 2,3 km/h (1 Bft) 100,00 %
13.07.2018 09:14 16,3 C 18,3 C 16,7 C 98 % 1019,1 hPa 0,0 l/m 2 min 0 min 428 W/m 4,5 km/h (1 Bft) 100,00 %
13.07.2018 09:16 16,4 C 18,3 C 16,7 C 97 % 1019,1 hPa 0,0 l/m 2 min 0 min 433 W/m 6,8 km/h (2 Bft) 98,11 %
13.07.2018 09:18 16,4 C 18,3 C 16,7 C 97 % 1019,1 hPa 0,0 l/m 2 min 0 min 440 W/m 6,8 km/h (2 Bft) 100,00 %
13.07.2018 09:20 16,5 C 18,3 C 16,7 C 97 % 1019,1 hPa 0,0 l/m 2 min 0 min 446 W/m 4,5 km/h (1 Bft) 97,87 %
13.07.2018 09:22 16,6 C 18,3 C 16,7 C 97 % 1019,1 hPa 0,0 l/m 2 min 0 min 449 W/m 2,3 km/h (1 Bft) 97,83 %
13.07.2018 09:24 16,6 C 18,9 C 16,7 C 97 % 1019,1 hPa 0,0 l/m 2 min 0 min 460 W/m 4,5 km/h (1 Bft) 97,87 %
13.07.2018 09:26 16,6 C 18,9 C 16,7 C 97 % 1019,1 hPa 0,0 l/m 2 min 0 min 463 W/m 6,8 km/h (2 Bft) 95,74 %
13.07.2018 09:28 16,6 C 18,9 C 16,7 C 97 % 1019,1 hPa 0,0 l/m 2 min 0 min 469 W/m 4,5 km/h (1 Bft) 97,87 %
13.07.2018 09:30 16,7 C 18,9 C 16,7 C 97 % 1019,1 hPa 0,0 l/m 2 min 0 min 473 W/m 4,5 km/h (1 Bft) 97,87 %
13.07.2018 09:32 16,7 C 18,9 C 16,7 C 97 % 1019,1 hPa 0,0 l/m 2 min 0 min 482 W/m 4,5 km/h (1 Bft) 95,92 %
13.07.2018 09:34 16,8 C 18,9 C 16,7 C 96 % 1019,0 hPa 0,0 l/m 2 min 0 min 488 W/m 4,5 km/h (1 Bft) 97,83 %
13.07.2018 09:36 16,8 C 18,9 C 17,2 C 96 % 1019,1 hPa 0,0 l/m 2 min 0 min 491 W/m 4,5 km/h (1 Bft) 97,37 %
13.07.2018 09:38 16,8 C 18,9 C 17,2 C 96 % 1019,1 hPa 0,0 l/m 2 min 0 min 497 W/m 6,8 km/h (2 Bft) 97,87 %
13.07.2018 09:40 16,9 C 18,9 C 17,2 C 96 % 1019,1 hPa 0,0 l/m 2 min 0 min 500 W/m 9,0 km/h (2 Bft) 97,87 %
13.07.2018 09:42 16,9 C 18,9 C 17,2 C 95 % 1019,1 hPa 0,0 l/m 2 min 0 min 505 W/m 6,8 km/h (2 Bft) 95,74 %
13.07.2018 09:44 17,0 C 18,9 C 17,2 C 95 % 1019,1 hPa 0,0 l/m 2 min 0 min 510 W/m 6,8 km/h (2 Bft) 97,87 %
13.07.2018 09:46 17,1 C 18,9 C 17,2 C 94 % 1019,0 hPa 0,0 l/m 2 min 0 min 513 W/m 4,5 km/h (1 Bft) 93,62 %
13.07.2018 09:48 17,1 C 18,9 C 17,2 C 94 % 1019,0 hPa 0,0 l/m 2 min 0 min 517 W/m 4,5 km/h (1 Bft) 95,65 %
13.07.2018 09:50 17,2 C 19,4 C 17,2 C 93 % 1019,0 hPa 0,0 l/m 2 min 0 min 521 W/m 4,5 km/h (1 Bft) 95,74 %
13.07.2018 09:52 17,3 C 19,4 C 17,8 C 93 % 1019,0 hPa 0,0 l/m 2 min 0 min 527 W/m 6,8 km/h (2 Bft) 95,83 %
13.07.2018 09:54 17,4 C 19,4 C 17,8 C 91 % 1019,1 hPa 0,0 l/m 2 min 0 min 533 W/m 9,0 km/h (2 Bft) 93,62 %
13.07.2018 09:56 17,5 C 19,4 C 17,8 C 91 % 1019,1 hPa 0,0 l/m 2 min 0 min 539 W/m 4,5 km/h (1 Bft) 95,74 %
13.07.2018 09:58 17,6 C 19,4 C 17,8 C 90 % 1019,1 hPa 0,0 l/m 2 min 0 min 542 W/m 9,0 km/h (2 Bft) 95,74 %
13.07.2018 10:00 17,7 C 20,0 C 17,8 C 89 % 1019,2 hPa 0,0 l/m 2 min 0 min 549 W/m 9,0 km/h (2 Bft) 95,65 %
13.07.2018 10:02 17,8 C 20,0 C 17,8 C 89 % 1019,0 hPa 0,0 l/m 2 min 0 min 557 W/m 6,8 km/h (2 Bft) 91,49 %
13.07.2018 10:04 17,9 C 21,1 C 17,8 C 88 % 1019,0 hPa 0,0 l/m 2 min 0 min 561 W/m 6,8 km/h (2 Bft) 97,87 %
13.07.2018 10:06 18,0 C 22,2 C 17,8 C 87 % 1019,0 hPa 0,0 l/m 2 min 0 min 571 W/m 9,0 km/h (2 Bft) 95,74 %
13.07.2018 10:08 18,1 C 21,7 C 17,8 C 86 % 1019,0 hPa 0,0 l/m 2 min 0 min 577 W/m 11,3 km/h (2 Bft) 97,87 %
13.07.2018 10:10 18,1 C 21,1 C 17,8 C 86 % 1019,0 hPa 0,0 l/m 2 min 0 min 587 W/m 6,8 km/h (2 Bft) 95,74 %
13.07.2018 10:12 18,2 C 21,1 C 17,8 C 85 % 1019,0 hPa 0,0 l/m 2 min 0 min 594 W/m 4,5 km/h (1 Bft) 97,83 %
13.07.2018 10:14 18,3 C 20,6 C 17,8 C 85 % 1018,9 hPa 0,0 l/m 2 min 0 min 602 W/m 11,3 km/h (2 Bft) 95,74 %
13.07.2018 10:16 18,3 C 21,1 C 18,3 C 85 % 1019,0 hPa 0,0 l/m 2 min 0 min 610 W/m 6,8 km/h (2 Bft) 96,23 %
13.07.2018 10:18 18,4 C 21,1 C 18,3 C 85 % 1018,9 hPa 0,0 l/m 2 min 0 min 600 W/m 6,8 km/h (2 Bft) 97,87 %
13.07.2018 10:20 18,4 C 21,1 C 18,3 C 85 % 1018,9 hPa 0,0 l/m 2 min 0 min 579 W/m 11,3 km/h (2 Bft) 97,87 %
13.07.2018 10:22 18,5 C 20,6 C 18,3 C 84 % 1018,9 hPa 0,0 l/m 2 min 0 min 530 W/m 11,3 km/h (2 Bft) 97,87 %
13.07.2018 10:24 18,6 C 20,6 C 17,8 C 83 % 1018,9 hPa 0,0 l/m 2 min 0 min 469 W/m 6,8 km/h (2 Bft) 95,65 %
13.07.2018 10:26 18,7 C 20,0 C 17,8 C 82 % 1018,9 hPa 0,0 l/m 2 min 0 min 448 W/m 4,5 km/h (1 Bft) 97,87 %
13.07.2018 10:28 18,7 C 20,6 C 17,8 C 82 % 1019,0 hPa 0,0 l/m 2 min 0 min 551 W/m 2,3 km/h (1 Bft) 97,87 %
13.07.2018 10:30 18,8 C 20,6 C 18,3 C 81 % 1019,0 hPa 0,0 l/m 2 min 0 min 595 W/m 4,5 km/h (1 Bft) 97,87 %
13.07.2018 10:32 18,8 C 20,6 C 18,3 C 82 % 1018,9 hPa 0,0 l/m 2 min 0 min 607 W/m 6,8 km/h (2 Bft) 97,92 %
13.07.2018 10:34 18,9 C 20,6 C 18,3 C 82 % 1019,0 hPa 0,0 l/m 2 min 0 min 615 W/m 4,5 km/h (1 Bft) 97,87 %
13.07.2018 10:36 19,1 C 21,1 C 18,3 C 81 % 1019,0 hPa 0,0 l/m 2 min 0 min 637 W/m 6,8 km/h (2 Bft) 97,44 %
13.07.2018 10:38 19,1 C 21,1 C 18,3 C 81 % 1019,1 hPa 0,0 l/m 2 min 0 min 644 W/m 4,5 km/h (1 Bft) 97,83 %
13.07.2018 10:40 19,2 C 21,7 C 18,3 C 81 % 1019,0 hPa 0,0 l/m 2 min 0 min 654 W/m 11,3 km/h (2 Bft) 95,74 %
13.07.2018 10:42 19,3 C 22,2 C 18,3 C 81 % 1019,0 hPa 0,0 l/m 2 min 0 min 658 W/m 6,8 km/h (2 Bft) 95,74 %
13.07.2018 10:44 19,4 C 21,7 C 18,3 C 81 % 1019,0 hPa 0,0 l/m 2 min 0 min 638 W/m 6,8 km/h (2 Bft) 95,74 %
13.07.2018 10:46 19,5 C 21,7 C 18,9 C 80 % 1019,0 hPa 0,0 l/m 2 min 0 min 660 W/m 6,8 km/h (2 Bft) 95,65 %
13.07.2018 10:48 19,6 C 22,2 C 18,9 C 80 % 1019,0 hPa 0,0 l/m 2 min 0 min 663 W/m 4,5 km/h (1 Bft) 100,00 %
13.07.2018 10:50 19,7 C 22,2 C 18,9 C 79 % 1019,0 hPa 0,0 l/m 2 min 0 min 664 W/m 4,5 km/h (1 Bft) 100,00 %
13.07.2018 10:52 19,8 C 22,2 C 18,9 C 78 % 1019,0 hPa 0,0 l/m 2 min 0 min 669 W/m 4,5 km/h (1 Bft) 95,74 %
13.07.2018 10:54 19,9 C 23,3 C 18,9 C 77 % 1019,0 hPa 0,0 l/m 2 min 0 min 669 W/m 6,8 km/h (2 Bft) 97,87 %
13.07.2018 10:56 20,0 C 25,0 C 18,9 C 77 % 1019,0 hPa 0,0 l/m 2 min 0 min 668 W/m 6,8 km/h (2 Bft) 95,74 %
13.07.2018 10:58 20,1 C 26,7 C 18,9 C 78 % 1019,0 hPa 0,0 l/m 2 min 0 min 676 W/m 6,8 km/h (2 Bft) 100,00 %
13.07.2018 11:00 20,2 C 27,8 C 18,9 C 78 % 1019,0 hPa 0,0 l/m 2 min 0 min 682 W/m 9,0 km/h (2 Bft) 100,00 %
13.07.2018 11:02 20,3 C 27,2 C 18,9 C 77 % 1019,0 hPa 0,0 l/m 2 min 0 min 680 W/m 13,5 km/h (3 Bft) 95,83 %
13.07.2018 11:04 20,4 C 27,8 C 18,9 C 76 % 1019,0 hPa 0,0 l/m 2 min 0 min 687 W/m 9,0 km/h (2 Bft) 97,87 %
13.07.2018 11:06 20,4 C 28,9 C 18,9 C 76 % 1019,0 hPa 0,0 l/m 2 min 0 min 691 W/m 9,0 km/h (2 Bft) 95,74 %
13.07.2018 11:08 20,6 C 28,9 C 18,9 C 76 % 1019,0 hPa 0,0 l/m 2 min 0 min 693 W/m 9,0 km/h (2 Bft) 97,87 %
13.07.2018 11:10 20,7 C 28,9 C 18,9 C 76 % 1019,0 hPa 0,0 l/m 2 min 0 min 696 W/m 11,3 km/h (2 Bft) 97,83 %
13.07.2018 11:12 20,7 C 28,3 C 19,4 C 74 % 1019,0 hPa 0,0 l/m 2 min 0 min 701 W/m 6,8 km/h (2 Bft) 97,87 %
13.07.2018 11:14 20,8 C 30,0 C 19,4 C 74 % 1019,0 hPa 0,0 l/m 2 min 0 min 711 W/m 4,5 km/h (1 Bft) 97,87 %
13.07.2018 11:16 21,0 C 28,9 C 19,4 C 74 % 1019,0 hPa 0,0 l/m 2 min 0 min 714 W/m 6,8 km/h (2 Bft) 97,87 %
13.07.2018 11:18 21,1 C 30,0 C 19,4 C 74 % 1019,0 hPa 0,0 l/m 2 min 0 min 719 W/m 6,8 km/h (2 Bft) 97,87 %
13.07.2018 11:20 21,3 C 30,6 C 19,4 C 74 % 1019,0 hPa 0,0 l/m 2 min 0 min 722 W/m 11,3 km/h (2 Bft) 97,87 %
13.07.2018 11:22 21,4 C 29,4 C 19,4 C 72 % 1019,0 hPa 0,0 l/m 2 min 0 min 725 W/m 9,0 km/h (2 Bft) 95,65 %
13.07.2018 11:24 21,6 C 30,0 C 19,4 C 71 % 1019,0 hPa 0,0 l/m 2 min 0 min 730 W/m 6,8 km/h (2 Bft) 97,73 %
13.07.2018 11:26 21,7 C 30,0 C 20,0 C 69 % 1019,0 hPa 0,0 l/m 2 min 0 min 734 W/m 4,5 km/h (1 Bft) 95,74 %
13.07.2018 11:28 21,8 C 30,0 C 20,0 C 69 % 1019,0 hPa 0,0 l/m 2 min 0 min 735 W/m 9,0 km/h (2 Bft) 97,87 %
13.07.2018 11:30 21,9 C 31,1 C 20,0 C 69 % 1019,0 hPa 0,0 l/m 2 min 0 min 741 W/m 6,8 km/h (2 Bft) 97,87 %
13.07.2018 11:32 22,1 C 31,1 C 20,0 C 68 % 1019,0 hPa 0,0 l/m 2 min 0 min 743 W/m 6,8 km/h (2 Bft) 97,96 %
13.07.2018 11:34 22,3 C 32,2 C 20,6 C 70 % 1019,0 hPa 0,0 l/m 2 min 0 min 748 W/m 6,8 km/h (2 Bft) 95,65 %
13.07.2018 11:36 22,4 C 31,1 C 20,0 C 67 % 1019,0 hPa 0,0 l/m 2 min 0 min 754 W/m 9,0 km/h (2 Bft) 95,83 %
13.07.2018 11:38 22,6 C 31,7 C 20,0 C 67 % 1019,0 hPa 0,0 l/m 2 min 0 min 754 W/m 6,8 km/h (2 Bft) 97,87 %
13.07.2018 11:40 22,8 C 32,2 C 20,0 C 67 % 1019,0 hPa 0,0 l/m 2 min 0 min 757 W/m 9,0 km/h (2 Bft) 97,87 %
13.07.2018 11:42 22,9 C 33,3 C 20,0 C 67 % 1019,0 hPa 0,0 l/m 2 min 0 min 761 W/m 6,8 km/h (2 Bft) 100,00 %
13.07.2018 11:44 23,1 C 33,3 C 20,0 C 66 % 1019,0 hPa 0,0 l/m 2 min 0 min 764 W/m 9,0 km/h (2 Bft) 97,87 %
13.07.2018 11:46 23,2 C 33,9 C 20,0 C 66 % 1019,0 hPa 0,0 l/m 2 min 0 min 764 W/m 9,0 km/h (2 Bft) 97,83 %
13.07.2018 11:48 23,3 C 33,3 C 20,0 C 64 % 1018,9 hPa 0,0 l/m 2 min 0 min 766 W/m 9,0 km/h (2 Bft) 97,87 %
13.07.2018 11:50 23,4 C 34,4 C 20,0 C 64 % 1019,0 hPa 0,0 l/m 2 min 0 min 771 W/m 9,0 km/h (2 Bft) 97,87 %
13.07.2018 11:52 23,6 C 34,4 C 20,0 C 65 % 1019,0 hPa 0,0 l/m 2 min 0 min 777 W/m 11,3 km/h (2 Bft) 97,87 %
13.07.2018 11:54 23,7 C 33,3 C 20,6 C 64 % 1019,0 hPa 0,0 l/m 2 min 0 min 780 W/m 6,8 km/h (2 Bft) 95,74 %
13.07.2018 11:56 23,8 C 33,3 C 20,6 C 62 % 1019,0 hPa 0,0 l/m 2 min 0 min 778 W/m 4,5 km/h (1 Bft) 95,65 %
13.07.2018 11:58 23,9 C 32,8 C 20,6 C 63 % 1019,0 hPa 0,0 l/m 2 min 0 min 777 W/m 13,5 km/h (3 Bft) 95,74 %
13.07.2018 12:00 24,1 C 33,3 C 20,6 C 62 % 1019,0 hPa 0,0 l/m 2 min 0 min 788 W/m 11,3 km/h (2 Bft) 95,74 %
13.07.2018 12:02 24,1 C 33,9 C 20,6 C 62 % 1019,0 hPa 0,0 l/m 2 min 0 min 791 W/m 9,0 km/h (2 Bft) 95,74 %
13.07.2018 12:04 24,2 C 31,7 C 20,6 C 60 % 1019,0 hPa 0,0 l/m 2 min 0 min 793 W/m 6,8 km/h (2 Bft) 95,74 %
13.07.2018 12:08 24,3 C 30,6 C 21,1 C 60 % 1019,0 hPa 0,0 l/m 4 min 0 min 794 W/m 13,5 km/h (3 Bft) 97,98 %
13.07.2018 12:10 24,4 C 31,7 C 21,1 C 60 % 1019,1 hPa 0,0 l/m 2 min 0 min 799 W/m 9,0 km/h (2 Bft) 95,74 %
13.07.2018 12:12 24,5 C 32,8 C 21,7 C 60 % 1019,0 hPa 0,0 l/m 2 min 0 min 800 W/m 11,3 km/h (2 Bft) 97,87 %
13.07.2018 12:14 24,6 C 32,8 C 21,7 C 61 % 1019,0 hPa 0,0 l/m 2 min 0 min 808 W/m 6,8 km/h (2 Bft) 95,74 %
13.07.2018 12:16 24,7 C 32,2 C 21,1 C 59 % 1019,0 hPa 0,0 l/m 2 min 0 min 810 W/m 6,8 km/h (2 Bft) 97,87 %
13.07.2018 12:18 24,8 C 32,8 C 21,7 C 60 % 1019,0 hPa 0,0 l/m 2 min 0 min 809 W/m 15,8 km/h (3 Bft) 91,49 %
13.07.2018 12:20 24,9 C 32,8 C 21,7 C 60 % 1019,0 hPa 0,0 l/m 2 min 0 min 810 W/m 9,0 km/h (2 Bft) 97,83 %
13.07.2018 12:22 24,9 C 33,3 C 21,7 C 60 % 1019,0 hPa 0,0 l/m 2 min 0 min 814 W/m 6,8 km/h (2 Bft) 100,00 %
13.07.2018 12:24 25,0 C 32,8 C 21,7 C 58 % 1019,0 hPa 0,0 l/m 2 min 0 min 817 W/m 9,0 km/h (2 Bft) 95,74 %
13.07.2018 12:26 25,1 C 34,4 C 21,7 C 61 % 1019,0 hPa 0,0 l/m 2 min 0 min 821 W/m 6,8 km/h (2 Bft) 95,74 %
13.07.2018 12:28 25,1 C 35,0 C 21,7 C 61 % 1019,0 hPa 0,0 l/m 2 min 0 min 824 W/m 4,5 km/h (1 Bft) 97,87 %
13.07.2018 12:30 25,2 C 35,0 C 21,7 C 61 % 1019,0 hPa 0,0 l/m 2 min 0 min 823 W/m 6,8 km/h (2 Bft) 97,83 %
13.07.2018 12:32 25,4 C 35,0 C 21,7 C 59 % 1019,0 hPa 0,0 l/m 2 min 0 min 824 W/m 6,8 km/h (2 Bft) 97,44 %
13.07.2018 12:34 25,4 C 35,0 C 21,7 C 60 % 1018,9 hPa 0,0 l/m 2 min 0 min 822 W/m 6,8 km/h (2 Bft) 97,83 %
13.07.2018 12:38 25,6 C 34,4 C 21,7 C 59 % 1019,0 hPa 0,0 l/m 4 min 0 min 831 W/m 11,3 km/h (2 Bft) 97,94 %
13.07.2018 12:40 25,7 C 34,4 C 21,7 C 59 % 1018,9 hPa 0,0 l/m 2 min 0 min 834 W/m 6,8 km/h (2 Bft) 100,00 %
13.07.2018 12:42 25,7 C 35,0 C 21,7 C 58 % 1019,0 hPa 0,0 l/m 2 min 0 min 841 W/m 6,8 km/h (2 Bft) 100,00 %
13.07.2018 12:44 25,7 C 33,9 C 22,2 C 57 % 1018,8 hPa 0,0 l/m 2 min 0 min 842 W/m 9,0 km/h (2 Bft) 97,83 %
13.07.2018 12:46 25,8 C 34,4 C 22,2 C 60 % 1018,9 hPa 0,0 l/m 2 min 0 min 846 W/m 11,3 km/h (2 Bft) 97,87 %
13.07.2018 12:48 25,9 C 35,0 C 22,2 C 59 % 1018,9 hPa 0,0 l/m 2 min 0 min 844 W/m 9,0 km/h (2 Bft) 100,00 %
13.07.2018 12:50 25,9 C 33,9 C 22,2 C 56 % 1018,9 hPa 0,0 l/m 2 min 0 min 846 W/m 9,0 km/h (2 Bft) 100,00 %
13.07.2018 12:52 25,9 C 34,4 C 22,2 C 57 % 1018,9 hPa 0,0 l/m 2 min 0 min 846 W/m 6,8 km/h (2 Bft) 100,00 %
13.07.2018 12:54 26,0 C 35,0 C 22,2 C 58 % 1018,9 hPa 0,0 l/m 2 min 0 min 852 W/m 9,0 km/h (2 Bft) 100,00 %
13.07.2018 12:56 26,0 C 34,4 C 22,8 C 56 % 1018,9 hPa 0,0 l/m 2 min 0 min 857 W/m 15,8 km/h (3 Bft) 93,48 %
13.07.2018 12:58 26,1 C 35,0 C 22,2 C 56 % 1018,9 hPa 0,0 l/m 2 min 0 min 858 W/m 6,8 km/h (2 Bft) 100,00 %
13.07.2018 13:00 26,1 C 35,0 C 22,8 C 56 % 1018,9 hPa 0,0 l/m 2 min 0 min 857 W/m 9,0 km/h (2 Bft) 100,00 %
13.07.2018 13:02 26,1 C 33,9 C 22,8 C 56 % 1018,9 hPa 0,0 l/m 2 min 0 min 861 W/m 9,0 km/h (2 Bft) 97,87 %
13.07.2018 13:04 26,1 C 33,3 C 22,8 C 56 % 1018,9 hPa 0,0 l/m 2 min 0 min 868 W/m 9,0 km/h (2 Bft) 100,00 %
13.07.2018 13:06 26,2 C 33,3 C 22,8 C 55 % 1018,8 hPa 0,0 l/m 2 min 0 min 868 W/m 11,3 km/h (2 Bft) 100,00 %
13.07.2018 13:08 26,2 C 33,9 C 22,8 C 55 % 1018,9 hPa 0,0 l/m 2 min 0 min 872 W/m 11,3 km/h (2 Bft) 97,87 %
13.07.2018 13:10 26,2 C 31,7 C 22,8 C 53 % 1018,8 hPa 0,0 l/m 2 min 0 min 873 W/m 4,5 km/h (1 Bft) 97,87 %
13.07.2018 13:12 26,2 C 33,3 C 22,8 C 56 % 1018,7 hPa 0,0 l/m 2 min 0 min 874 W/m 9,0 km/h (2 Bft) 95,74 %
13.07.2018 13:14 26,2 C 33,3 C 22,8 C 55 % 1018,7 hPa 0,0 l/m 2 min 0 min 874 W/m 6,8 km/h (2 Bft) 97,87 %
13.07.2018 13:16 26,3 C 33,3 C 22,8 C 55 % 1018,7 hPa 0,0 l/m 2 min 0 min 872 W/m 6,8 km/h (2 Bft) 97,83 %
13.07.2018 13:18 26,3 C 33,9 C 22,8 C 56 % 1018,7 hPa 0,0 l/m 2 min 0 min 871 W/m 6,8 km/h (2 Bft) 97,87 %
13.07.2018 13:20 26,3 C 33,9 C 22,8 C 56 % 1018,7 hPa 0,0 l/m 2 min 0 min 872 W/m 15,8 km/h (3 Bft) 97,87 %
13.07.2018 13:22 26,3 C 33,9 C 22,8 C 56 % 1018,7 hPa 0,0 l/m 2 min 0 min 872 W/m 11,3 km/h (2 Bft) 97,37 %
13.07.2018 13:24 26,3 C 32,2 C 22,8 C 55 % 1018,7 hPa 0,0 l/m 2 min 0 min 870 W/m 6,8 km/h (2 Bft) 97,87 %
13.07.2018 13:26 26,3 C 31,7 C 22,8 C 55 % 1018,7 hPa 0,0 l/m 2 min 0 min 875 W/m 9,0 km/h (2 Bft) 97,87 %
13.07.2018 13:28 26,3 C 32,8 C 22,8 C 56 % 1018,8 hPa 0,0 l/m 2 min 0 min 872 W/m 9,0 km/h (2 Bft) 97,87 %
13.07.2018 13:30 26,3 C 33,9 C 22,8 C 56 % 1018,7 hPa 0,0 l/m 2 min 0 min 874 W/m 9,0 km/h (2 Bft) 97,87 %
13.07.2018 13:32 26,3 C 31,7 C 22,8 C 54 % 1018,8 hPa 0,0 l/m 2 min 0 min 876 W/m 4,5 km/h (1 Bft) 97,83 %
13.07.2018 13:34 26,3 C 32,2 C 23,3 C 57 % 1018,7 hPa 0,0 l/m 2 min 0 min 879 W/m 4,5 km/h (1 Bft) 97,87 %
13.07.2018 13:38 26,3 C 31,7 C 23,3 C 57 % 1018,7 hPa 0,0 l/m 4 min 0 min 877 W/m 6,8 km/h (2 Bft) 97,89 %
13.07.2018 13:40 26,3 C 30,0 C 23,9 C 56 % 1018,5 hPa 0,0 l/m 2 min 0 min 875 W/m 9,0 km/h (2 Bft) 95,74 %
13.07.2018 13:42 26,3 C 28,3 C 23,3 C 56 % 1018,5 hPa 0,0 l/m 2 min 0 min 881 W/m 11,3 km/h (2 Bft) 97,87 %
13.07.2018 13:44 26,3 C 27,8 C 23,3 C 56 % 1018,5 hPa 0,0 l/m 2 min 0 min 880 W/m 9,0 km/h (2 Bft) 97,83 %
13.07.2018 13:46 26,3 C 27,2 C 23,3 C 57 % 1018,5 hPa 0,0 l/m 2 min 0 min 881 W/m 11,3 km/h (2 Bft) 97,87 %
13.07.2018 13:48 26,4 C 26,7 C 23,9 C 56 % 1018,5 hPa 0,0 l/m 2 min 0 min 876 W/m 9,0 km/h (2 Bft) 95,74 %
13.07.2018 13:50 26,4 C 26,7 C 23,9 C 56 % 1018,5 hPa 0,0 l/m 2 min 0 min 876 W/m 9,0 km/h (2 Bft) 97,87 %
13.07.2018 13:52 26,4 C 26,7 C 23,3 C 56 % 1018,4 hPa 0,0 l/m 2 min 0 min 864 W/m 9,0 km/h (2 Bft) 97,87 %
13.07.2018 13:54 26,4 C 26,1 C 23,3 C 55 % 1018,4 hPa 0,0 l/m 2 min 0 min 854 W/m 9,0 km/h (2 Bft) 97,83 %
13.07.2018 13:56 26,3 C 26,1 C 23,3 C 54 % 1018,4 hPa 0,0 l/m 2 min 0 min 881 W/m 6,8 km/h (2 Bft) 97,87 %
13.07.2018 13:58 26,3 C 26,1 C 23,3 C 55 % 1018,3 hPa 0,0 l/m 2 min 0 min 888 W/m 6,8 km/h (2 Bft) 95,74 %
13.07.2018 14:00 26,3 C 26,1 C 23,9 C 55 % 1018,4 hPa 0,0 l/m 2 min 0 min 886 W/m 11,3 km/h (2 Bft) 97,87 %
13.07.2018 14:02 26,3 C 26,1 C 23,9 C 55 % 1018,3 hPa 0,0 l/m 2 min 0 min 888 W/m 13,5 km/h (3 Bft) 95,74 %
13.07.2018 14:04 26,3 C 26,1 C 23,9 C 55 % 1018,3 hPa 0,0 l/m 2 min 0 min 884 W/m 11,3 km/h (2 Bft) 95,74 %
13.07.2018 14:06 26,3 C 26,1 C 23,9 C 55 % 1018,3 hPa 0,0 l/m 2 min 0 min 886 W/m 9,0 km/h (2 Bft) 97,83 %
13.07.2018 14:08 26,2 C 26,1 C 23,3 C 54 % 1018,3 hPa 0,0 l/m 2 min 0 min 867 W/m 4,5 km/h (1 Bft) 97,87 %
13.07.2018 14:10 26,2 C 25,6 C 23,3 C 55 % 1018,2 hPa 0,0 l/m 2 min 0 min 867 W/m 6,8 km/h (2 Bft) 97,87 %
13.07.2018 14:12 26,2 C 26,1 C 23,3 C 56 % 1018,2 hPa 0,0 l/m 2 min 0 min 877 W/m 6,8 km/h (2 Bft) 97,87 %
13.07.2018 14:14 26,2 C 26,1 C 23,9 C 55 % 1018,2 hPa 0,0 l/m 2 min 0 min 882 W/m 9,0 km/h (2 Bft) 97,87 %
13.07.2018 14:16 26,2 C 26,1 C 23,9 C 55 % 1018,2 hPa 0,0 l/m 2 min 0 min 879 W/m 11,3 km/h (2 Bft) 96,15 %
13.07.2018 14:18 26,2 C 26,1 C 23,9 C 56 % 1018,2 hPa 0,0 l/m 2 min 0 min 882 W/m 9,0 km/h (2 Bft) 100,00 %
13.07.2018 14:20 26,1 C 26,1 C 23,3 C 55 % 1018,2 hPa 0,0 l/m 2 min 0 min 882 W/m 6,8 km/h (2 Bft) 93,62 %
13.07.2018 14:22 26,1 C 26,1 C 23,9 C 57 % 1018,2 hPa 0,0 l/m 2 min 0 min 877 W/m 4,5 km/h (1 Bft) 95,74 %
13.07.2018 14:24 26,2 C 26,7 C 23,9 C 55 % 1018,1 hPa 0,0 l/m 2 min 0 min 889 W/m 6,8 km/h (2 Bft) 97,87 %
13.07.2018 14:26 26,1 C 26,7 C 23,9 C 55 % 1018,1 hPa 0,0 l/m 2 min 0 min 890 W/m 6,8 km/h (2 Bft) 95,74 %
13.07.2018 14:28 26,1 C 26,7 C 23,9 C 55 % 1018,0 hPa 0,0 l/m 2 min 0 min 881 W/m 6,8 km/h (2 Bft) 97,83 %
13.07.2018 14:30 26,2 C 26,7 C 23,9 C 55 % 1018,1 hPa 0,0 l/m 2 min 0 min 876 W/m 9,0 km/h (2 Bft) 97,96 %
13.07.2018 14:32 26,2 C 26,1 C 23,9 C 54 % 1018,1 hPa 0,0 l/m 2 min 0 min 890 W/m 9,0 km/h (2 Bft) 94,59 %
13.07.2018 14:34 26,2 C 26,7 C 23,9 C 55 % 1018,0 hPa 0,0 l/m 2 min 0 min 890 W/m 9,0 km/h (2 Bft) 93,62 %
13.07.2018 14:36 26,2 C 26,7 C 23,9 C 56 % 1018,0 hPa 0,0 l/m 2 min 0 min 882 W/m 13,5 km/h (3 Bft) 95,92 %
13.07.2018 14:38 26,2 C 26,7 C 23,9 C 55 % 1018,0 hPa 0,0 l/m 2 min 0 min 882 W/m 13,5 km/h (3 Bft) 95,74 %
13.07.2018 14:40 26,2 C 26,7 C 23,9 C 55 % 1018,0 hPa 0,0 l/m 2 min 0 min 882 W/m 9,0 km/h (2 Bft) 95,74 %
13.07.2018 14:42 26,2 C 26,7 C 23,9 C 55 % 1018,0 hPa 0,0 l/m 2 min 0 min 877 W/m 13,5 km/h (3 Bft) 95,65 %
13.07.2018 14:44 26,2 C 26,7 C 23,9 C 55 % 1018,0 hPa 0,0 l/m 2 min 0 min 866 W/m 13,5 km/h (3 Bft) 95,74 %
13.07.2018 14:46 26,2 C 26,7 C 23,9 C 56 % 1018,0 hPa 0,0 l/m 2 min 0 min 870 W/m 6,8 km/h (2 Bft) 97,87 %
13.07.2018 14:48 26,3 C 26,7 C 23,9 C 55 % 1017,9 hPa 0,0 l/m 2 min 0 min 875 W/m 6,8 km/h (2 Bft) 93,62 %
13.07.2018 14:50 26,3 C 26,7 C 23,9 C 54 % 1017,9 hPa 0,0 l/m 2 min 0 min 875 W/m 9,0 km/h (2 Bft) 93,62 %
13.07.2018 14:52 26,3 C 26,7 C 23,9 C 56 % 1017,8 hPa 0,0 l/m 2 min 0 min 880 W/m 4,5 km/h (1 Bft) 95,65 %
13.07.2018 14:54 26,3 C 26,7 C 23,9 C 56 % 1017,9 hPa 0,0 l/m 2 min 0 min 881 W/m 9,0 km/h (2 Bft) 93,62 %
13.07.2018 14:56 26,3 C 26,7 C 23,9 C 54 % 1017,8 hPa 0,0 l/m 2 min 0 min 864 W/m 6,8 km/h (2 Bft) 95,74 %
13.07.2018 14:58 26,3 C 26,7 C 24,4 C 53 % 1017,8 hPa 0,0 l/m 2 min 0 min 871 W/m 9,0 km/h (2 Bft) 95,74 %
13.07.2018 15:00 26,4 C 27,2 C 24,4 C 54 % 1017,8 hPa 0,0 l/m 2 min 0 min 873 W/m 9,0 km/h (2 Bft) 91,49 %
13.07.2018 15:02 26,4 C 26,7 C 24,4 C 54 % 1017,8 hPa 0,0 l/m 2 min 0 min 872 W/m 11,3 km/h (2 Bft) 94,44 %
13.07.2018 15:04 26,4 C 26,7 C 23,9 C 54 % 1017,8 hPa 0,0 l/m 2 min 0 min 867 W/m 4,5 km/h (1 Bft) 95,65 %
13.07.2018 15:06 26,4 C 26,1 C 24,4 C 53 % 1017,9 hPa 0,0 l/m 2 min 0 min 873 W/m 6,8 km/h (2 Bft) 94,87 %
13.07.2018 15:08 26,4 C 26,7 C 24,4 C 54 % 1017,9 hPa 0,0 l/m 2 min 0 min 877 W/m 11,3 km/h (2 Bft) 95,74 %
13.07.2018 15:10 26,4 C 26,7 C 24,4 C 54 % 1017,9 hPa 0,0 l/m 2 min 0 min 847 W/m 9,0 km/h (2 Bft) 93,62 %
13.07.2018 15:12 26,5 C 26,7 C 23,9 C 54 % 1017,9 hPa 0,0 l/m 2 min 0 min 847 W/m 6,8 km/h (2 Bft) 95,74 %
13.07.2018 15:14 26,5 C 27,2 C 23,9 C 54 % 1017,8 hPa 0,0 l/m 2 min 0 min 852 W/m 11,3 km/h (2 Bft) 95,74 %
13.07.2018 15:16 26,6 C 27,2 C 23,9 C 55 % 1017,8 hPa 0,0 l/m 2 min 0 min 834 W/m 9,0 km/h (2 Bft) 95,65 %
13.07.2018 15:18 26,6 C 27,2 C 24,4 C 54 % 1017,8 hPa 0,0 l/m 2 min 0 min 852 W/m 9,0 km/h (2 Bft) 97,87 %
13.07.2018 15:20 26,6 C 27,2 C 24,4 C 54 % 1017,7 hPa 0,0 l/m 2 min 0 min 856 W/m 11,3 km/h (2 Bft) 95,74 %
13.07.2018 15:22 26,7 C 27,2 C 25,0 C 53 % 1017,8 hPa 0,0 l/m 2 min 0 min 855 W/m 15,8 km/h (3 Bft) 100,00 %
13.07.2018 15:24 26,7 C 27,2 C 24,4 C 52 % 1017,8 hPa 0,0 l/m 2 min 0 min 858 W/m 11,3 km/h (2 Bft) 100,00 %
13.07.2018 15:26 26,8 C 27,2 C 24,4 C 52 % 1017,8 hPa 0,0 l/m 2 min 0 min 855 W/m 15,8 km/h (3 Bft) 100,00 %
13.07.2018 15:28 26,8 C 27,2 C 24,4 C 52 % 1017,7 hPa 0,0 l/m 2 min 0 min 846 W/m 11,3 km/h (2 Bft) 97,83 %
13.07.2018 15:30 26,8 C 27,2 C 24,4 C 51 % 1017,7 hPa 0,0 l/m 2 min 0 min 840 W/m 11,3 km/h (2 Bft) 97,87 %
13.07.2018 15:32 26,9 C 27,2 C 24,4 C 53 % 1017,7 hPa 0,0 l/m 2 min 0 min 850 W/m 4,5 km/h (1 Bft) 100,00 %
13.07.2018 15:34 26,9 C 27,2 C 24,4 C 51 % 1017,7 hPa 0,0 l/m 2 min 0 min 847 W/m 6,8 km/h (2 Bft) 100,00 %
13.07.2018 15:36 26,9 C 27,8 C 24,4 C 52 % 1017,7 hPa 0,0 l/m 2 min 0 min 836 W/m 6,8 km/h (2 Bft) 100,00 %
13.07.2018 15:38 27,0 C 27,8 C 24,4 C 51 % 1017,6 hPa 0,0 l/m 2 min 0 min 830 W/m 6,8 km/h (2 Bft) 100,00 %
13.07.2018 15:40 27,1 C 27,8 C 24,4 C 52 % 1017,6 hPa 0,0 l/m 2 min 0 min 826 W/m 6,8 km/h (2 Bft) 100,00 %
13.07.2018 15:42 27,1 C 27,8 C 24,4 C 52 % 1017,6 hPa 0,0 l/m 2 min 0 min 823 W/m 4,5 km/h (1 Bft) 100,00 %
13.07.2018 15:44 27,1 C 28,3 C 24,4 C 53 % 1017,7 hPa 0,0 l/m 2 min 0 min 811 W/m 4,5 km/h (1 Bft) 100,00 %
13.07.2018 15:46 27,2 C 27,8 C 24,4 C 49 % 1017,7 hPa 0,0 l/m 2 min 0 min 817 W/m 11,3 km/h (2 Bft) 100,00 %
13.07.2018 15:48 27,2 C 28,3 C 24,4 C 49 % 1017,7 hPa 0,0 l/m 2 min 0 min 823 W/m 9,0 km/h (2 Bft) 100,00 %
13.07.2018 15:50 27,3 C 29,4 C 24,4 C 51 % 1017,7 hPa 0,0 l/m 2 min 0 min 821 W/m 6,8 km/h (2 Bft) 100,00 %
13.07.2018 15:52 27,3 C 30,0 C 24,4 C 49 % 1017,6 hPa 0,0 l/m 2 min 0 min 818 W/m 11,3 km/h (2 Bft) 100,00 %
13.07.2018 15:54 27,3 C 31,1 C 25,0 C 51 % 1017,6 hPa 0,0 l/m 2 min 0 min 816 W/m 6,8 km/h (2 Bft) 100,00 %
13.07.2018 15:56 27,4 C 30,6 C 24,4 C 50 % 1017,6 hPa 0,0 l/m 2 min 0 min 818 W/m 6,8 km/h (2 Bft) 97,87 %
13.07.2018 15:58 27,4 C 32,2 C 24,4 C 50 % 1017,6 hPa 0,0 l/m 2 min 0 min 813 W/m 11,3 km/h (2 Bft) 100,00 %
13.07.2018 16:00 27,4 C 32,2 C 25,0 C 49 % 1017,7 hPa 0,0 l/m 2 min 0 min 810 W/m 9,0 km/h (2 Bft) 97,87 %
13.07.2018 16:02 27,5 C 32,8 C 24,4 C 49 % 1017,6 hPa 0,0 l/m 2 min 0 min 808 W/m 9,0 km/h (2 Bft) 100,00 %
13.07.2018 16:04 27,6 C 32,8 C 25,0 C 49 % 1017,6 hPa 0,0 l/m 2 min 0 min 816 W/m 6,8 km/h (2 Bft) 100,00 %
13.07.2018 16:06 27,6 C 32,2 C 24,4 C 49 % 1017,6 hPa 0,0 l/m 2 min 0 min 803 W/m 15,8 km/h (3 Bft) 100,00 %
13.07.2018 16:08 27,6 C 32,2 C 24,4 C 49 % 1017,5 hPa 0,0 l/m 2 min 0 min 795 W/m 11,3 km/h (2 Bft) 100,00 %
13.07.2018 16:10 27,6 C 32,2 C 24,4 C 49 % 1017,5 hPa 0,0 l/m 2 min 0 min 796 W/m 9,0 km/h (2 Bft) 100,00 %
13.07.2018 16:12 27,6 C 32,2 C 24,4 C 49 % 1017,5 hPa 0,0 l/m 2 min 0 min 794 W/m 6,8 km/h (2 Bft) 100,00 %
13.07.2018 16:14 27,6 C 32,2 C 24,4 C 48 % 1017,5 hPa 0,0 l/m 2 min 0 min 790 W/m 11,3 km/h (2 Bft) 100,00 %
13.07.2018 16:16 27,6 C 32,2 C 25,0 C 49 % 1017,5 hPa 0,0 l/m 2 min 0 min 782 W/m 9,0 km/h (2 Bft) 97,87 %
13.07.2018 16:18 27,6 C 32,2 C 25,0 C 49 % 1017,5 hPa 0,0 l/m 2 min 0 min 775 W/m 9,0 km/h (2 Bft) 100,00 %
13.07.2018 16:20 27,6 C 32,2 C 24,4 C 48 % 1017,4 hPa 0,0 l/m 2 min 0 min 769 W/m 9,0 km/h (2 Bft) 100,00 %
13.07.2018 16:22 27,6 C 31,7 C 24,4 C 48 % 1017,4 hPa 0,0 l/m 2 min 0 min 766 W/m 6,8 km/h (2 Bft) 98,04 %
13.07.2018 16:24 27,6 C 31,1 C 24,4 C 48 % 1017,4 hPa 0,0 l/m 2 min 0 min 765 W/m 9,0 km/h (2 Bft) 100,00 %
13.07.2018 16:26 27,6 C 31,1 C 24,4 C 48 % 1017,3 hPa 0,0 l/m 2 min 0 min 769 W/m 6,8 km/h (2 Bft) 100,00 %
13.07.2018 16:28 27,7 C 32,2 C 25,0 C 50 % 1017,3 hPa 0,0 l/m 2 min 0 min 770 W/m 4,5 km/h (1 Bft) 100,00 %
13.07.2018 16:30 27,7 C 32,2 C 25,0 C 48 % 1017,3 hPa 0,0 l/m 2 min 0 min 759 W/m 6,8 km/h (2 Bft) 100,00 %
13.07.2018 16:32 27,7 C 32,8 C 24,4 C 49 % 1017,3 hPa 0,0 l/m 2 min 0 min 756 W/m 6,8 km/h (2 Bft) 100,00 %
13.07.2018 16:34 27,8 C 32,8 C 24,4 C 49 % 1017,3 hPa 0,0 l/m 2 min 0 min 755 W/m 6,8 km/h (2 Bft) 100,00 %
13.07.2018 16:36 27,8 C 32,2 C 25,0 C 50 % 1017,3 hPa 0,0 l/m 2 min 0 min 753 W/m 4,5 km/h (1 Bft) 97,87 %
13.07.2018 16:38 27,8 C 31,7 C 25,0 C 49 % 1017,3 hPa 0,0 l/m 2 min 0 min 747 W/m 11,3 km/h (2 Bft) 97,87 %
13.07.2018 16:40 27,9 C 31,1 C 25,0 C 48 % 1017,3 hPa 0,0 l/m 2 min 0 min 740 W/m 9,0 km/h (2 Bft) 97,87 %
13.07.2018 16:42 27,9 C 31,1 C 25,0 C 49 % 1017,3 hPa 0,0 l/m 2 min 0 min 735 W/m 11,3 km/h (2 Bft) 97,87 %
13.07.2018 16:44 27,9 C 31,7 C 25,0 C 49 % 1017,3 hPa 0,0 l/m 2 min 0 min 730 W/m 11,3 km/h (2 Bft) 97,87 %
13.07.2018 16:46 28,0 C 31,7 C 25,0 C 49 % 1017,3 hPa 0,0 l/m 2 min 0 min 726 W/m 11,3 km/h (2 Bft) 97,87 %
13.07.2018 16:48 28,0 C 30,6 C 25,0 C 47 % 1017,3 hPa 0,0 l/m 2 min 0 min 723 W/m 6,8 km/h (2 Bft) 97,83 %
13.07.2018 16:50 28,0 C 30,6 C 25,0 C 48 % 1017,3 hPa 0,0 l/m 2 min 0 min 723 W/m 9,0 km/h (2 Bft) 97,87 %
13.07.2018 16:52 28,1 C 30,6 C 25,0 C 49 % 1017,3 hPa 0,0 l/m 2 min 0 min 715 W/m 6,8 km/h (2 Bft) 97,87 %
13.07.2018 16:54 28,1 C 31,1 C 25,0 C 49 % 1017,3 hPa 0,0 l/m 2 min 0 min 708 W/m 4,5 km/h (1 Bft) 97,87 %
13.07.2018 16:56 28,1 C 31,1 C 25,0 C 49 % 1017,3 hPa 0,0 l/m 2 min 0 min 707 W/m 6,8 km/h (2 Bft) 97,87 %
13.07.2018 16:58 28,1 C 31,1 C 25,0 C 50 % 1017,3 hPa 0,0 l/m 2 min 0 min 704 W/m 6,8 km/h (2 Bft) 97,87 %
13.07.2018 17:00 28,1 C 31,1 C 25,0 C 49 % 1017,3 hPa 0,0 l/m 2 min 0 min 702 W/m 6,8 km/h (2 Bft) 97,83 %
13.07.2018 17:02 28,1 C 30,6 C 25,6 C 47 % 1017,2 hPa 0,0 l/m 2 min 0 min 706 W/m 11,3 km/h (2 Bft) 100,00 %
13.07.2018 17:04 28,1 C 30,0 C 25,0 C 47 % 1017,2 hPa 0,0 l/m 2 min 0 min 704 W/m 9,0 km/h (2 Bft) 97,87 %
13.07.2018 17:06 28,1 C 30,6 C 25,0 C 48 % 1017,2 hPa 0,0 l/m 2 min 0 min 699 W/m 6,8 km/h (2 Bft) 97,14 %
13.07.2018 17:08 28,2 C 30,6 C 25,6 C 48 % 1017,3 hPa 0,0 l/m 2 min 0 min 693 W/m 4,5 km/h (1 Bft) 97,87 %
13.07.2018 17:10 28,2 C 31,1 C 25,6 C 48 % 1017,3 hPa 0,0 l/m 2 min 0 min 687 W/m 6,8 km/h (2 Bft) 95,74 %
13.07.2018 17:12 28,2 C 30,6 C 25,6 C 48 % 1017,2 hPa 0,0 l/m 2 min 0 min 687 W/m 6,8 km/h (2 Bft) 95,74 %
13.07.2018 17:14 28,2 C 30,0 C 25,6 C 48 % 1017,2 hPa 0,0 l/m 2 min 0 min 686 W/m 13,5 km/h (3 Bft) 95,74 %
13.07.2018 17:16 28,2 C 28,9 C 25,6 C 47 % 1017,2 hPa 0,0 l/m 2 min 0 min 685 W/m 18,0 km/h (3 Bft) 97,83 %
13.07.2018 17:18 28,2 C 28,9 C 25,6 C 47 % 1017,2 hPa 0,0 l/m 2 min 0 min 686 W/m 13,5 km/h (3 Bft) 95,74 %
13.07.2018 17:20 28,2 C 28,9 C 25,6 C 48 % 1017,2 hPa 0,0 l/m 2 min 0 min 682 W/m 6,8 km/h (2 Bft) 95,74 %
13.07.2018 17:22 28,2 C 28,3 C 25,6 C 47 % 1017,2 hPa 0,0 l/m 2 min 0 min 668 W/m 6,8 km/h (2 Bft) 94,34 %
13.07.2018 17:24 28,2 C 28,3 C 25,6 C 47 % 1017,2 hPa 0,0 l/m 2 min 0 min 657 W/m 6,8 km/h (2 Bft) 97,87 %
13.07.2018 17:26 28,2 C 28,9 C 25,6 C 47 % 1017,3 hPa 0,0 l/m 2 min 0 min 649 W/m 9,0 km/h (2 Bft) 97,83 %
13.07.2018 17:28 28,2 C 28,9 C 25,6 C 48 % 1017,3 hPa 0,0 l/m 2 min 0 min 646 W/m 6,8 km/h (2 Bft) 97,87 %
13.07.2018 17:30 28,2 C 29,4 C 25,6 C 48 % 1017,3 hPa 0,0 l/m 2 min 0 min 639 W/m 6,8 km/h (2 Bft) 93,62 %
13.07.2018 17:32 28,2 C 28,9 C 25,6 C 46 % 1017,3 hPa 0,0 l/m 2 min 0 min 632 W/m 13,5 km/h (3 Bft) 90,24 %
13.07.2018 17:34 28,2 C 28,9 C 25,6 C 47 % 1017,2 hPa 0,0 l/m 2 min 0 min 632 W/m 6,8 km/h (2 Bft) 93,62 %
13.07.2018 17:36 28,2 C 28,3 C 25,6 C 46 % 1017,3 hPa 0,0 l/m 2 min 0 min 626 W/m 6,8 km/h (2 Bft) 92,73 %
13.07.2018 17:38 28,2 C 28,3 C 25,6 C 47 % 1017,3 hPa 0,0 l/m 2 min 0 min 623 W/m 13,5 km/h (3 Bft) 93,62 %
13.07.2018 17:40 28,2 C 27,8 C 25,6 C 46 % 1017,2 hPa 0,0 l/m 2 min 0 min 619 W/m 9,0 km/h (2 Bft) 91,49 %
13.07.2018 17:42 28,2 C 26,7 C 25,0 C 47 % 1017,2 hPa 0,0 l/m 2 min 0 min 619 W/m 4,5 km/h (1 Bft) 91,49 %
13.07.2018 17:44 28,1 C 26,1 C 23,9 C 48 % 1017,2 hPa 0,0 l/m 0 min 0 min 164 W/m 6,8 km/h (2 Bft) 93,62 %
13.07.2018 17:46 28,1 C 26,1 C 22,8 C 47 % 1017,2 hPa 0,0 l/m 2 min 0 min 382 W/m 11,3 km/h (2 Bft) 93,62 %
13.07.2018 17:48 28,0 C 26,1 C 23,3 C 48 % 1017,2 hPa 0,0 l/m 2 min 0 min 597 W/m 9,0 km/h (2 Bft) 95,65 %
13.07.2018 17:50 27,9 C 26,1 C 22,8 C 48 % 1017,2 hPa 0,0 l/m 2 min 0 min 606 W/m 6,8 km/h (2 Bft) 93,62 %
13.07.2018 17:52 27,9 C 26,1 C 21,7 C 49 % 1017,2 hPa 0,0 l/m 2 min 0 min 602 W/m 6,8 km/h (2 Bft) 93,75 %
13.07.2018 17:54 27,8 C 25,0 C 21,1 C 48 % 1017,2 hPa 0,0 l/m 2 min 0 min 597 W/m 9,0 km/h (2 Bft) 93,62 %
13.07.2018 17:56 27,8 C 24,4 C 21,1 C 48 % 1017,2 hPa 0,0 l/m 2 min 0 min 598 W/m 11,3 km/h (2 Bft) 95,74 %
13.07.2018 17:58 27,7 C 24,4 C 21,1 C 48 % 1017,2 hPa 0,0 l/m 2 min 0 min 601 W/m 11,3 km/h (2 Bft) 91,49 %
13.07.2018 18:00 27,7 C 24,4 C 21,7 C 48 % 1017,2 hPa 0,0 l/m 2 min 0 min 600 W/m 9,0 km/h (2 Bft) 93,48 %
13.07.2018 18:02 27,6 C 25,0 C 20,6 C 49 % 1017,2 hPa 0,0 l/m 2 min 0 min 598 W/m 6,8 km/h (2 Bft) 89,36 %
13.07.2018 18:04 27,6 C 25,6 C 21,7 C 49 % 1017,2 hPa 0,0 l/m 2 min 0 min 598 W/m 9,0 km/h (2 Bft) 95,74 %
13.07.2018 18:08 27,4 C 26,7 C 22,2 C 50 % 1017,1 hPa 0,0 l/m 4 min 0 min 588 W/m 6,8 km/h (2 Bft) 94,79 %
13.07.2018 18:10 27,4 C 27,2 C 22,8 C 51 % 1017,1 hPa 0,0 l/m 2 min 0 min 586 W/m 6,8 km/h (2 Bft) 95,65 %
13.07.2018 18:12 27,4 C 27,2 C 23,3 C 49 % 1017,1 hPa 0,0 l/m 2 min 0 min 591 W/m 4,5 km/h (1 Bft) 93,62 %
13.07.2018 18:14 27,4 C 27,2 C 22,8 C 49 % 1017,1 hPa 0,0 l/m 2 min 0 min 590 W/m 6,8 km/h (2 Bft) 93,62 %
13.07.2018 18:16 27,4 C 27,8 C 22,8 C 49 % 1017,0 hPa 0,0 l/m 2 min 0 min 586 W/m 6,8 km/h (2 Bft) 93,62 %
13.07.2018 18:18 27,4 C 27,8 C 22,8 C 48 % 1017,0 hPa 0,0 l/m 2 min 0 min 586 W/m 4,5 km/h (1 Bft) 95,74 %
13.07.2018 18:20 27,4 C 27,8 C 23,3 C 50 % 1017,0 hPa 0,0 l/m 2 min 0 min 577 W/m 4,5 km/h (1 Bft) 95,74 %
13.07.2018 18:22 27,4 C 26,7 C 21,7 C 48 % 1017,0 hPa 0,0 l/m 2 min 0 min 570 W/m 9,0 km/h (2 Bft) 95,24 %
13.07.2018 18:24 27,4 C 26,1 C 21,1 C 50 % 1017,0 hPa 0,0 l/m 2 min 0 min 571 W/m 9,0 km/h (2 Bft) 95,65 %
13.07.2018 18:26 27,4 C 26,7 C 19,4 C 50 % 1017,0 hPa 0,0 l/m 2 min 0 min 572 W/m 4,5 km/h (1 Bft) 97,87 %
13.07.2018 18:28 27,4 C 26,1 C 20,0 C 49 % 1017,0 hPa 0,0 l/m 2 min 0 min 565 W/m 4,5 km/h (1 Bft) 95,74 %
13.07.2018 18:30 27,4 C 26,1 C 20,0 C 51 % 1017,0 hPa 0,0 l/m 2 min 0 min 568 W/m 4,5 km/h (1 Bft) 97,87 %
13.07.2018 18:32 27,4 C 26,7 C 20,6 C 50 % 1017,0 hPa 0,0 l/m 2 min 0 min 571 W/m 6,8 km/h (2 Bft) 97,96 %
13.07.2018 18:34 27,4 C 27,2 C 20,0 C 50 % 1017,1 hPa 0,0 l/m 2 min 0 min 575 W/m 4,5 km/h (1 Bft) 100,00 %
13.07.2018 18:36 27,4 C 26,1 C 18,9 C 51 % 1017,1 hPa 0,0 l/m 2 min 0 min 553 W/m 6,8 km/h (2 Bft) 97,96 %
13.07.2018 18:38 27,4 C 26,7 C 19,4 C 50 % 1017,0 hPa 0,0 l/m 2 min 0 min 529 W/m 11,3 km/h (2 Bft) 100,00 %
13.07.2018 18:40 27,3 C 26,7 C 19,4 C 50 % 1017,0 hPa 0,0 l/m 2 min 0 min 511 W/m 9,0 km/h (2 Bft) 100,00 %
13.07.2018 18:42 27,3 C 23,9 C 18,9 C 50 % 1017,0 hPa 0,0 l/m 2 min 0 min 498 W/m 4,5 km/h (1 Bft) 100,00 %
13.07.2018 18:44 27,3 C 23,3 C 18,3 C 50 % 1017,0 hPa 0,0 l/m 2 min 0 min 495 W/m 9,0 km/h (2 Bft) 100,00 %
13.07.2018 18:46 27,2 C 23,3 C 18,9 C 50 % 1016,9 hPa 0,0 l/m 2 min 0 min 500 W/m 9,0 km/h (2 Bft) 97,87 %
13.07.2018 18:48 27,2 C 22,8 C 18,3 C 51 % 1016,9 hPa 0,0 l/m 2 min 0 min 490 W/m 6,8 km/h (2 Bft) 100,00 %
13.07.2018 18:50 27,2 C 23,3 C 18,3 C 51 % 1016,8 hPa 0,0 l/m 2 min 0 min 478 W/m 13,5 km/h (3 Bft) 100,00 %
13.07.2018 18:52 27,1 C 23,9 C 19,4 C 50 % 1016,9 hPa 0,0 l/m 2 min 0 min 464 W/m 11,3 km/h (2 Bft) 97,87 %
13.07.2018 18:54 27,1 C 25,0 C 20,0 C 50 % 1016,9 hPa 0,0 l/m 2 min 0 min 455 W/m 13,5 km/h (3 Bft) 100,00 %
13.07.2018 18:56 27,1 C 25,0 C 19,4 C 50 % 1016,9 hPa 0,0 l/m 2 min 0 min 447 W/m 9,0 km/h (2 Bft) 100,00 %
13.07.2018 18:58 27,0 C 25,6 C 19,4 C 50 % 1016,8 hPa 0,0 l/m 2 min 0 min 440 W/m 6,8 km/h (2 Bft) 100,00 %
13.07.2018 19:00 27,0 C 25,6 C 19,4 C 50 % 1016,9 hPa 0,0 l/m 2 min 0 min 434 W/m 6,8 km/h (2 Bft) 100,00 %
13.07.2018 19:02 27,0 C 26,1 C 20,0 C 50 % 1016,9 hPa 0,0 l/m 2 min 0 min 427 W/m 6,8 km/h (2 Bft) 97,87 %
13.07.2018 19:04 26,9 C 26,1 C 20,0 C 50 % 1016,8 hPa 0,0 l/m 2 min 0 min 418 W/m 9,0 km/h (2 Bft) 100,00 %
13.07.2018 19:06 26,9 C 26,1 C 20,0 C 50 % 1016,9 hPa 0,0 l/m 2 min 0 min 408 W/m 9,0 km/h (2 Bft) 100,00 %
13.07.2018 19:08 26,9 C 25,0 C 20,0 C 50 % 1016,9 hPa 0,0 l/m 2 min 0 min 397 W/m 9,0 km/h (2 Bft) 100,00 %
13.07.2018 19:10 26,9 C 22,8 C 18,9 C 53 % 1016,8 hPa 0,0 l/m 2 min 0 min 387 W/m 4,5 km/h (1 Bft) 100,00 %
13.07.2018 19:12 26,9 C 22,8 C 18,9 C 51 % 1016,9 hPa 0,0 l/m 2 min 0 min 380 W/m 9,0 km/h (2 Bft) 100,00 %
13.07.2018 19:14 26,8 C 23,9 C 19,4 C 49 % 1016,8 hPa 0,0 l/m 2 min 0 min 369 W/m 9,0 km/h (2 Bft) 100,00 %
13.07.2018 19:16 26,8 C 24,4 C 18,9 C 50 % 1016,8 hPa 0,0 l/m 2 min 0 min 327 W/m 6,8 km/h (2 Bft) 100,00 %
13.07.2018 19:18 26,7 C 24,4 C 18,9 C 50 % 1016,8 hPa 0,0 l/m 2 min 0 min 222 W/m 11,3 km/h (2 Bft) 97,87 %
13.07.2018 19:20 26,7 C 24,4 C 18,3 C 50 % 1016,8 hPa 0,0 l/m 0 min 0 min 62 W/m 6,8 km/h (2 Bft) 100,00 %
13.07.2018 19:22 26,6 C 23,9 C 18,3 C 51 % 1016,8 hPa 0,0 l/m 0 min 0 min 130 W/m 6,8 km/h (2 Bft) 100,00 %
13.07.2018 19:24 26,5 C 23,9 C 17,8 C 50 % 1016,8 hPa 0,0 l/m 2 min 0 min 308 W/m 11,3 km/h (2 Bft) 100,00 %
13.07.2018 19:26 26,4 C 23,9 C 18,3 C 50 % 1016,8 hPa 0,0 l/m 2 min 0 min 321 W/m 9,0 km/h (2 Bft) 100,00 %
13.07.2018 19:28 26,4 C 24,4 C 18,3 C 50 % 1016,8 hPa 0,0 l/m 2 min 0 min 312 W/m 11,3 km/h (2 Bft) 100,00 %
13.07.2018 19:30 26,3 C 24,4 C 17,8 C 50 % 1016,7 hPa 0,0 l/m 2 min 0 min 309 W/m 6,8 km/h (2 Bft) 100,00 %
13.07.2018 19:32 26,2 C 24,4 C 17,8 C 50 % 1016,7 hPa 0,0 l/m 2 min 0 min 307 W/m 11,3 km/h (2 Bft) 100,00 %
13.07.2018 19:34 26,2 C 23,9 C 17,8 C 51 % 1016,7 hPa 0,0 l/m 2 min 0 min 303 W/m 13,5 km/h (3 Bft) 100,00 %
13.07.2018 19:36 26,1 C 22,8 C 18,3 C 50 % 1016,7 hPa 0,0 l/m 2 min 0 min 224 W/m 11,3 km/h (2 Bft) 100,00 %
13.07.2018 19:38 26,1 C 22,2 C 18,3 C 51 % 1016,7 hPa 0,0 l/m 2 min 0 min 163 W/m 9,0 km/h (2 Bft) 100,00 %
13.07.2018 19:40 26,0 C 21,7 C 18,3 C 51 % 1016,6 hPa 0,0 l/m 0 min 0 min 100 W/m 6,8 km/h (2 Bft) 97,87 %
13.07.2018 19:42 25,9 C 21,1 C 18,3 C 50 % 1016,7 hPa 0,0 l/m 0 min 0 min 70 W/m 9,0 km/h (2 Bft) 100,00 %
13.07.2018 19:44 25,9 C 21,7 C 17,8 C 51 % 1016,7 hPa 0,0 l/m 0 min 0 min 113 W/m 4,5 km/h (1 Bft) 100,00 %
13.07.2018 19:46 25,8 C 22,2 C 17,8 C 51 % 1016,7 hPa 0,0 l/m 2 min 0 min 251 W/m 9,0 km/h (2 Bft) 97,83 %
13.07.2018 19:48 25,8 C 22,8 C 18,3 C 51 % 1016,7 hPa 0,0 l/m 2 min 0 min 262 W/m 9,0 km/h (2 Bft) 100,00 %
13.07.2018 19:50 25,7 C 23,3 C 17,8 C 51 % 1016,7 hPa 0,0 l/m 2 min 0 min 245 W/m 4,5 km/h (1 Bft) 100,00 %
13.07.2018 19:52 25,7 C 23,3 C 18,3 C 52 % 1016,7 hPa 0,0 l/m 2 min 0 min 146 W/m 4,5 km/h (1 Bft) 100,00 %
13.07.2018 19:54 25,6 C 23,9 C 18,9 C 52 % 1016,7 hPa 0,0 l/m 0 min 0 min 75 W/m 6,8 km/h (2 Bft) 97,87 %
13.07.2018 19:56 25,6 C 23,9 C 19,4 C 52 % 1016,6 hPa 0,0 l/m 0 min 0 min 70 W/m 11,3 km/h (2 Bft) 100,00 %
13.07.2018 19:58 25,6 C 23,9 C 19,4 C 53 % 1016,6 hPa 0,0 l/m 0 min 0 min 76 W/m 6,8 km/h (2 Bft) 100,00 %
13.07.2018 20:00 25,4 C 23,9 C 18,3 C 52 % 1016,7 hPa 0,0 l/m 0 min 0 min 76 W/m 9,0 km/h (2 Bft) 97,87 %
13.07.2018 20:02 25,4 C 23,9 C 17,8 C 53 % 1016,6 hPa 0,0 l/m 0 min 0 min 76 W/m 4,5 km/h (1 Bft) 100,00 %
13.07.2018 20:04 25,3 C 23,3 C 17,2 C 54 % 1016,7 hPa 0,0 l/m 0 min 0 min 72 W/m 9,0 km/h (2 Bft) 100,00 %
13.07.2018 20:06 25,3 C 23,3 C 18,3 C 53 % 1016,7 hPa 0,0 l/m 0 min 0 min 67 W/m 9,0 km/h (2 Bft) 100,00 %
13.07.2018 20:08 25,2 C 23,3 C 18,3 C 55 % 1016,7 hPa 0,0 l/m 0 min 0 min 62 W/m 4,5 km/h (1 Bft) 100,00 %
13.07.2018 20:10 25,1 C 21,1 C 17,8 C 55 % 1016,6 hPa 0,0 l/m 0 min 0 min 60 W/m 4,5 km/h (1 Bft) 100,00 %
13.07.2018 20:12 25,1 C 21,1 C 17,2 C 54 % 1016,6 hPa 0,0 l/m 0 min 0 min 59 W/m 2,3 km/h (1 Bft) 100,00 %
13.07.2018 20:14 25,0 C 20,6 C 16,7 C 55 % 1016,6 hPa 0,0 l/m 0 min 0 min 57 W/m 4,5 km/h (1 Bft) 100,00 %
13.07.2018 20:16 24,9 C 20,6 C 16,7 C 55 % 1016,6 hPa 0,0 l/m 0 min 0 min 54 W/m 9,0 km/h (2 Bft) 100,00 %
13.07.2018 20:18 24,9 C 20,6 C 16,7 C 54 % 1016,6 hPa 0,0 l/m 0 min 0 min 53 W/m 9,0 km/h (2 Bft) 100,00 %
13.07.2018 20:20 24,8 C 21,7 C 16,7 C 55 % 1016,7 hPa 0,0 l/m 0 min 0 min 53 W/m 9,0 km/h (2 Bft) 96,55 %
13.07.2018 20:22 24,7 C 21,7 C 16,7 C 55 % 1016,6 hPa 0,0 l/m 0 min 0 min 51 W/m 6,8 km/h (2 Bft) 97,14 %
13.07.2018 20:24 24,7 C 22,2 C 16,7 C 56 % 1016,6 hPa 0,0 l/m 0 min 0 min 45 W/m 4,5 km/h (1 Bft) 97,87 %
13.07.2018 20:26 24,7 C 22,2 C 16,7 C 57 % 1016,6 hPa 0,0 l/m 0 min 0 min 45 W/m 9,0 km/h (2 Bft) 95,74 %
13.07.2018 20:28 24,6 C 22,2 C 16,7 C 56 % 1016,6 hPa 0,0 l/m 0 min 0 min 48 W/m 6,8 km/h (2 Bft) 97,87 %
13.07.2018 20:30 24,6 C 22,2 C 16,1 C 57 % 1016,6 hPa 0,0 l/m 0 min 0 min 51 W/m 6,8 km/h (2 Bft) 100,00 %
13.07.2018 20:32 24,5 C 20,6 C 16,1 C 57 % 1016,6 hPa 0,0 l/m 0 min 0 min 50 W/m 4,5 km/h (1 Bft) 94,23 %
13.07.2018 20:34 24,4 C 20,0 C 16,7 C 58 % 1016,6 hPa 0,0 l/m 0 min 0 min 49 W/m 4,5 km/h (1 Bft) 95,74 %
13.07.2018 20:36 24,4 C 19,4 C 16,1 C 58 % 1016,6 hPa 0,0 l/m 0 min 0 min 46 W/m 2,3 km/h (1 Bft) 94,00 %
13.07.2018 20:38 24,4 C 19,4 C 16,1 C 58 % 1016,6 hPa 0,0 l/m 0 min 0 min 43 W/m 6,8 km/h (2 Bft) 95,74 %
13.07.2018 20:40 24,3 C 20,0 C 16,1 C 58 % 1016,7 hPa 0,0 l/m 0 min 0 min 40 W/m 6,8 km/h (2 Bft) 95,74 %
13.07.2018 20:42 24,3 C 20,0 C 16,1 C 58 % 1016,7 hPa 0,0 l/m 0 min 0 min 39 W/m 6,8 km/h (2 Bft) 93,62 %
13.07.2018 20:44 24,2 C 20,0 C 16,1 C 58 % 1016,7 hPa 0,0 l/m 0 min 0 min 36 W/m 4,5 km/h (1 Bft) 95,65 %
13.07.2018 20:46 24,1 C 20,0 C 16,1 C 59 % 1016,7 hPa 0,0 l/m 0 min 0 min 35 W/m 4,5 km/h (1 Bft) 95,74 %
13.07.2018 20:48 24,1 C 20,0 C 16,1 C 60 % 1016,7 hPa 0,0 l/m 0 min 0 min 35 W/m 9,0 km/h (2 Bft) 95,74 %
13.07.2018 20:50 24,0 C 20,6 C 16,1 C 60 % 1016,7 hPa 0,0 l/m 0 min 0 min 33 W/m 2,3 km/h (1 Bft) 93,62 %
13.07.2018 20:52 23,9 C 20,6 C 16,1 C 59 % 1016,7 hPa 0,0 l/m 0 min 0 min 33 W/m 4,5 km/h (1 Bft) 91,67 %
13.07.2018 20:54 23,8 C 20,6 C 16,1 C 60 % 1016,7 hPa 0,0 l/m 0 min 0 min 32 W/m 4,5 km/h (1 Bft) 93,62 %
13.07.2018 20:56 23,8 C 20,0 C 16,1 C 61 % 1016,7 hPa 0,0 l/m 0 min 0 min 30 W/m 4,5 km/h (1 Bft) 95,65 %
13.07.2018 20:58 23,7 C 20,0 C 16,1 C 61 % 1016,7 hPa 0,0 l/m 0 min 0 min 30 W/m 4,5 km/h (1 Bft) 95,74 %
13.07.2018 21:00 23,7 C 20,0 C 16,1 C 61 % 1016,7 hPa 0,0 l/m 0 min 0 min 29 W/m 2,3 km/h (1 Bft) 93,62 %
13.07.2018 21:02 23,6 C 20,6 C 16,1 C 61 % 1016,7 hPa 0,0 l/m 0 min 0 min 26 W/m 6,8 km/h (2 Bft) 94,59 %
13.07.2018 21:04 23,5 C 20,6 C 16,1 C 60 % 1016,7 hPa 0,0 l/m 0 min 0 min 26 W/m 2,3 km/h (1 Bft) 95,74 %
13.07.2018 21:06 23,4 C 20,6 C 16,1 C 61 % 1016,7 hPa 0,0 l/m 0 min 0 min 25 W/m 4,5 km/h (1 Bft) 95,74 %
13.07.2018 21:08 23,4 C 20,6 C 16,1 C 61 % 1016,7 hPa 0,0 l/m 0 min 0 min 23 W/m 4,5 km/h (1 Bft) 97,87 %
13.07.2018 21:10 23,3 C 20,6 C 16,1 C 62 % 1016,7 hPa 0,0 l/m 0 min 0 min 23 W/m 2,3 km/h (1 Bft) 93,48 %
13.07.2018 21:12 23,3 C 20,6 C 16,1 C 62 % 1016,8 hPa 0,0 l/m 0 min 0 min 21 W/m 2,3 km/h (1 Bft) 95,74 %
13.07.2018 21:14 23,2 C 20,6 C 16,1 C 62 % 1016,7 hPa 0,0 l/m 0 min 0 min 21 W/m 4,5 km/h (1 Bft) 95,74 %
13.07.2018 21:16 23,2 C 20,6 C 16,1 C 62 % 1016,8 hPa 0,0 l/m 0 min 0 min 19 W/m 6,8 km/h (2 Bft) 95,74 %
13.07.2018 21:18 23,1 C 20,6 C 15,6 C 62 % 1016,8 hPa 0,0 l/m 0 min 0 min 19 W/m 6,8 km/h (2 Bft) 93,62 %
13.07.2018 21:20 23,1 C 20,6 C 16,1 C 62 % 1016,9 hPa 0,0 l/m 0 min 0 min 18 W/m 4,5 km/h (1 Bft) 94,83 %
13.07.2018 21:22 23,0 C 20,0 C 16,1 C 62 % 1016,8 hPa 0,0 l/m 0 min 0 min 17 W/m 2,3 km/h (1 Bft) 97,14 %
13.07.2018 21:24 22,9 C 19,4 C 16,1 C 63 % 1016,9 hPa 0,0 l/m 0 min 0 min 16 W/m 4,5 km/h (1 Bft) 95,74 %
13.07.2018 21:26 22,8 C 18,9 C 16,1 C 63 % 1016,9 hPa 0,0 l/m 0 min 0 min 14 W/m 2,3 km/h (1 Bft) 95,74 %
13.07.2018 21:28 22,8 C 18,9 C 16,1 C 63 % 1016,9 hPa 0,0 l/m 0 min 0 min 14 W/m 0,0 km/h (0 Bft) 93,62 %
13.07.2018 21:30 22,7 C 18,9 C 16,1 C 63 % 1016,9 hPa 0,0 l/m 0 min 0 min 12 W/m 4,5 km/h (1 Bft) 95,74 %
13.07.2018 21:32 22,7 C 18,9 C 16,1 C 63 % 1017,0 hPa 0,0 l/m 0 min 0 min 12 W/m 2,3 km/h (1 Bft) 98,08 %
13.07.2018 21:34 22,7 C 18,9 C 16,1 C 63 % 1017,0 hPa 0,0 l/m 0 min 0 min 11 W/m 2,3 km/h (1 Bft) 97,87 %
13.07.2018 21:36 22,6 C 18,9 C 16,1 C 64 % 1017,0 hPa 0,0 l/m 0 min 0 min 10 W/m 6,8 km/h (2 Bft) 96,00 %
13.07.2018 21:38 22,6 C 18,9 C 16,1 C 64 % 1017,0 hPa 0,0 l/m 0 min 0 min 9 W/m 6,8 km/h (2 Bft) 97,87 %
13.07.2018 21:40 22,5 C 18,9 C 16,1 C 64 % 1017,0 hPa 0,0 l/m 0 min 0 min 9 W/m 4,5 km/h (1 Bft) 97,87 %
13.07.2018 21:42 22,4 C 18,9 C 16,1 C 64 % 1017,0 hPa 0,0 l/m 0 min 0 min 7 W/m 4,5 km/h (1 Bft) 97,83 %
13.07.2018 21:44 22,4 C 18,9 C 16,1 C 64 % 1017,1 hPa 0,0 l/m 0 min 0 min 7 W/m 2,3 km/h (1 Bft) 97,87 %
13.07.2018 21:46 22,3 C 18,9 C 16,1 C 64 % 1017,1 hPa 0,0 l/m 0 min 0 min 5 W/m 2,3 km/h (1 Bft) 95,74 %
13.07.2018 21:48 22,3 C 19,4 C 16,1 C 64 % 1017,2 hPa 0,0 l/m 0 min 0 min 5 W/m 0,0 km/h (0 Bft) 97,87 %
13.07.2018 21:50 22,2 C 19,4 C 16,1 C 65 % 1017,2 hPa 0,0 l/m 0 min 0 min 5 W/m 0,0 km/h (0 Bft) 97,87 %
13.07.2018 21:52 22,2 C 19,4 C 16,1 C 65 % 1017,2 hPa 0,0 l/m 0 min 0 min 4 W/m 0,0 km/h (0 Bft) 97,92 %
13.07.2018 21:54 22,1 C 19,4 C 16,1 C 66 % 1017,2 hPa 0,0 l/m 0 min 0 min 0 W/m 4,5 km/h (1 Bft) 100,00 %
13.07.2018 21:56 22,1 C 19,4 C 16,1 C 66 % 1017,2 hPa 0,0 l/m 0 min 0 min 0 W/m 6,8 km/h (2 Bft) 100,00 %
13.07.2018 21:58 22,0 C 19,4 C 16,1 C 66 % 1017,2 hPa 0,0 l/m 0 min 0 min 0 W/m 4,5 km/h (1 Bft) 100,00 %
13.07.2018 22:00 21,9 C 20,0 C 16,7 C 66 % 1017,2 hPa 0,0 l/m 0 min 0 min 0 W/m 4,5 km/h (1 Bft) 100,00 %
13.07.2018 22:02 21,8 C 20,0 C 16,7 C 66 % 1017,2 hPa 0,0 l/m 0 min 0 min 0 W/m 2,3 km/h (1 Bft) 100,00 %
13.07.2018 22:04 21,8 C 20,0 C 16,7 C 67 % 1017,1 hPa 0,0 l/m 0 min 0 min 0 W/m 6,8 km/h (2 Bft) 100,00 %
13.07.2018 22:06 21,7 C 20,0 C 16,7 C 67 % 1017,2 hPa 0,0 l/m 0 min 0 min 0 W/m 6,8 km/h (2 Bft) 100,00 %
13.07.2018 22:08 21,7 C 20,0 C 16,7 C 67 % 1017,2 hPa 0,0 l/m 0 min 0 min 0 W/m 6,8 km/h (2 Bft) 100,00 %
13.07.2018 22:10 21,6 C 20,0 C 16,7 C 67 % 1017,2 hPa 0,0 l/m 0 min 0 min 0 W/m 2,3 km/h (1 Bft) 100,00 %
13.07.2018 22:12 21,6 C 20,0 C 16,7 C 68 % 1017,2 hPa 0,0 l/m 0 min 0 min 0 W/m 2,3 km/h (1 Bft) 100,00 %
13.07.2018 22:14 21,6 C 20,0 C 16,7 C 68 % 1017,2 hPa 0,0 l/m 0 min 0 min 0 W/m 4,5 km/h (1 Bft) 100,00 %
13.07.2018 22:16 21,5 C 20,0 C 16,7 C 68 % 1017,3 hPa 0,0 l/m 0 min 0 min 0 W/m 4,5 km/h (1 Bft) 100,00 %
13.07.2018 22:18 21,4 C 20,0 C 16,7 C 68 % 1017,2 hPa 0,0 l/m 0 min 0 min 0 W/m 2,3 km/h (1 Bft) 100,00 %
13.07.2018 22:20 21,4 C 19,4 C 16,7 C 69 % 1017,2 hPa 0,0 l/m 0 min 0 min 0 W/m 4,5 km/h (1 Bft) 100,00 %
13.07.2018 22:22 21,4 C 19,4 C 16,7 C 69 % 1017,2 hPa 0,0 l/m 0 min 0 min 0 W/m 2,3 km/h (1 Bft) 95,74 %
13.07.2018 22:24 21,3 C 19,4 C 16,7 C 69 % 1017,2 hPa 0,0 l/m 0 min 0 min 0 W/m 6,8 km/h (2 Bft) 100,00 %
13.07.2018 22:26 21,3 C 19,4 C 16,7 C 69 % 1017,2 hPa 0,0 l/m 0 min 0 min 0 W/m 4,5 km/h (1 Bft) 95,74 %
13.07.2018 22:28 21,3 C 19,4 C 16,7 C 70 % 1017,2 hPa 0,0 l/m 0 min 0 min 0 W/m 6,8 km/h (2 Bft) 100,00 %
13.07.2018 22:30 21,2 C 19,4 C 16,7 C 70 % 1017,2 hPa 0,0 l/m 0 min 0 min 0 W/m 9,0 km/h (2 Bft) 100,00 %
13.07.2018 22:32 21,2 C 19,4 C 16,7 C 70 % 1017,2 hPa 0,0 l/m 0 min 0 min 0 W/m 9,0 km/h (2 Bft) 100,00 %
13.07.2018 22:34 21,2 C 20,0 C 17,2 C 70 % 1017,2 hPa 0,0 l/m 0 min 0 min 0 W/m 6,8 km/h (2 Bft) 97,87 %
13.07.2018 22:36 21,1 C 20,0 C 17,2 C 70 % 1017,2 hPa 0,0 l/m 0 min 0 min 0 W/m 2,3 km/h (1 Bft) 97,87 %
13.07.2018 22:38 21,1 C 20,0 C 17,8 C 70 % 1017,2 hPa 0,0 l/m 0 min 0 min 0 W/m 6,8 km/h (2 Bft) 100,00 %
13.07.2018 22:40 21,0 C 20,0 C 17,8 C 71 % 1017,2 hPa 0,0 l/m 0 min 0 min 0 W/m 6,8 km/h (2 Bft) 100,00 %
13.07.2018 22:42 21,0 C 20,0 C 18,3 C 71 % 1017,2 hPa 0,0 l/m 0 min 0 min 0 W/m 4,5 km/h (1 Bft) 100,00 %
13.07.2018 22:44 21,0 C 20,0 C 18,9 C 71 % 1017,2 hPa 0,0 l/m 0 min 0 min 0 W/m 9,0 km/h (2 Bft) 100,00 %
13.07.2018 22:46 21,0 C 20,0 C 18,9 C 71 % 1017,3 hPa 0,0 l/m 0 min 0 min 0 W/m 6,8 km/h (2 Bft) 100,00 %
13.07.2018 22:48 20,9 C 20,0 C 18,9 C 71 % 1017,2 hPa 0,0 l/m 0 min 0 min 0 W/m 6,8 km/h (2 Bft) 100,00 %
13.07.2018 22:50 20,9 C 19,4 C 18,9 C 71 % 1017,3 hPa 0,0 l/m 0 min 0 min 0 W/m 6,8 km/h (2 Bft) 100,00 %
13.07.2018 22:52 20,9 C 19,4 C 18,9 C 71 % 1017,2 hPa 0,0 l/m 0 min 0 min 0 W/m 6,8 km/h (2 Bft) 100,00 %
13.07.2018 22:54 20,9 C 19,4 C 18,9 C 71 % 1017,2 hPa 0,0 l/m 0 min 0 min 0 W/m 2,3 km/h (1 Bft) 100,00 %
13.07.2018 22:56 20,9 C 19,4 C 18,3 C 71 % 1017,3 hPa 0,0 l/m 0 min 0 min 0 W/m 4,5 km/h (1 Bft) 100,00 %
13.07.2018 22:58 20,8 C 19,4 C 18,9 C 71 % 1017,3 hPa 0,0 l/m 0 min 0 min 0 W/m 4,5 km/h (1 Bft) 100,00 %
13.07.2018 23:00 20,8 C 19,4 C 18,9 C 71 % 1017,3 hPa 0,0 l/m 0 min 0 min 0 W/m 4,5 km/h (1 Bft) 97,87 %
13.07.2018 23:02 20,8 C 19,4 C 18,9 C 71 % 1017,3 hPa 0,0 l/m 0 min 0 min 0 W/m 4,5 km/h (1 Bft) 98,15 %
13.07.2018 23:04 20,8 C 19,4 C 18,9 C 71 % 1017,4 hPa 0,0 l/m 0 min 0 min 0 W/m 9,0 km/h (2 Bft) 95,74 %
13.07.2018 23:06 20,8 C 19,4 C 18,9 C 71 % 1017,4 hPa 0,0 l/m 0 min 0 min 0 W/m 6,8 km/h (2 Bft) 98,00 %
13.07.2018 23:08 20,8 C 19,4 C 18,9 C 71 % 1017,5 hPa 0,0 l/m 0 min 0 min 0 W/m 4,5 km/h (1 Bft) 95,74 %
13.07.2018 23:10 20,7 C 19,4 C 18,9 C 72 % 1017,5 hPa 0,0 l/m 0 min 0 min 0 W/m 4,5 km/h (1 Bft) 97,87 %
13.07.2018 23:12 20,7 C 19,4 C 18,9 C 72 % 1017,6 hPa 0,0 l/m 0 min 0 min 0 W/m 9,0 km/h (2 Bft) 97,87 %
13.07.2018 23:14 20,7 C 19,4 C 18,9 C 72 % 1017,5 hPa 0,0 l/m 0 min 0 min 0 W/m 4,5 km/h (1 Bft) 97,83 %
13.07.2018 23:16 20,7 C 19,4 C 18,9 C 72 % 1017,6 hPa 0,0 l/m 0 min 0 min 0 W/m 6,8 km/h (2 Bft) 97,87 %
13.07.2018 23:18 20,7 C 19,4 C 18,9 C 72 % 1017,6 hPa 0,0 l/m 0 min 0 min 0 W/m 2,3 km/h (1 Bft) 97,87 %
13.07.2018 23:20 20,6 C 19,4 C 18,9 C 72 % 1017,6 hPa 0,0 l/m 0 min 0 min 0 W/m 6,8 km/h (2 Bft) 95,74 %
13.07.2018 23:22 20,6 C 19,4 C 18,9 C 72 % 1017,6 hPa 0,0 l/m 0 min 0 min 0 W/m 4,5 km/h (1 Bft) 97,22 %
13.07.2018 23:24 20,6 C 19,4 C 18,9 C 72 % 1017,6 hPa 0,0 l/m 0 min 0 min 0 W/m 6,8 km/h (2 Bft) 97,87 %
13.07.2018 23:26 20,6 C 19,4 C 18,9 C 72 % 1017,6 hPa 0,0 l/m 0 min 0 min 0 W/m 6,8 km/h (2 Bft) 97,87 %
13.07.2018 23:28 20,6 C 19,4 C 18,9 C 72 % 1017,6 hPa 0,0 l/m 0 min 0 min 0 W/m 6,8 km/h (2 Bft) 97,87 %
13.07.2018 23:30 20,6 C 19,4 C 18,9 C 72 % 1017,6 hPa 0,0 l/m 0 min 0 min 0 W/m 4,5 km/h (1 Bft) 93,48 %
13.07.2018 23:32 20,5 C 19,4 C 18,9 C 72 % 1017,5 hPa 0,0 l/m 0 min 0 min 0 W/m 6,8 km/h (2 Bft) 97,87 %
13.07.2018 23:34 20,5 C 19,4 C 18,9 C 72 % 1017,6 hPa 0,0 l/m 0 min 0 min 0 W/m 4,5 km/h (1 Bft) 95,74 %
13.07.2018 23:36 20,5 C 19,4 C 18,9 C 72 % 1017,5 hPa 0,0 l/m 0 min 0 min 0 W/m 2,3 km/h (1 Bft) 96,36 %
13.07.2018 23:38 20,4 C 19,4 C 18,9 C 72 % 1017,6 hPa 0,0 l/m 0 min 0 min 0 W/m 4,5 km/h (1 Bft) 95,74 %
13.07.2018 23:40 20,4 C 19,4 C 18,9 C 72 % 1017,6 hPa 0,0 l/m 0 min 0 min 0 W/m 4,5 km/h (1 Bft) 97,83 %
13.07.2018 23:42 20,4 C 19,4 C 18,9 C 72 % 1017,6 hPa 0,0 l/m 0 min 0 min 0 W/m 4,5 km/h (1 Bft) 95,74 %
13.07.2018 23:44 20,4 C 19,4 C 18,9 C 72 % 1017,6 hPa 0,0 l/m 0 min 0 min 0 W/m 2,3 km/h (1 Bft) 97,87 %
13.07.2018 23:46 20,4 C 19,4 C 18,9 C 72 % 1017,6 hPa 0,0 l/m 0 min 0 min 0 W/m 4,5 km/h (1 Bft) 93,62 %
13.07.2018 23:48 20,4 C 19,4 C 18,3 C 72 % 1017,6 hPa 0,0 l/m 0 min 0 min 0 W/m 2,3 km/h (1 Bft) 97,87 %
13.07.2018 23:50 20,4 C 19,4 C 18,9 C 73 % 1017,6 hPa 0,0 l/m 0 min 0 min 0 W/m 9,0 km/h (2 Bft) 95,65 %
13.07.2018 23:52 20,4 C 18,9 C 18,3 C 73 % 1017,6 hPa 0,0 l/m 0 min 0 min 0 W/m 2,3 km/h (1 Bft) 97,87 %
13.07.2018 23:54 20,4 C 18,9 C 18,3 C 72 % 1017,6 hPa 0,0 l/m 0 min 0 min 0 W/m 4,5 km/h (1 Bft) 98,00 %
13.07.2018 23:56 20,3 C 18,9 C 18,9 C 73 % 1017,6 hPa 0,0 l/m 0 min 0 min 0 W/m 4,5 km/h (1 Bft) 97,87 %
13.07.2018 23:58 20,3 C 18,9 C 18,9 C 72 % 1017,5 hPa 0,0 l/m 0 min 0 min 0 W/m 4,5 km/h (1 Bft) 97,87 %
_ Min-Zeit 06:40 04:30 04:22 17:32 19:40 - - - - 00:00 00:02
Minimum _ 13,7 C 12,8 C 13,3 C 46 % 1016,6 hPa - - - - 0,0 km/h (0 Bft) 9,09 %
_ Max-Zeit 17:08 12:28 17:02 08:28 10:00 00:00 12:08 00:00 14:26 17:16 00:00
Maximum _ 28,2 C 35,0 C 25,6 C 98 % 1019,2 hPa 0,0 l/m 4 min 0 min 890 W/m 18,0 km/h
NW (3 Bft)
100,00 %
Durchschnitt _ 20,7 C 21,1 C 18,1 C 74 % 1018,0 hPa #0,0 l/m #11:22 h #0 min. 475 W/m 5,5 km/h (1 Bft) 97,35 %
© 2018 W. Hausmann